<?xml version="1.0" encoding="UTF-8" standalone="no" ?>
<gpx xmlns="http://www.topografix.com/GPX/1/1" xmlns:xsi="http://www.w3.org/2001/XMLSchema-instance" xsi:schemaLocation="http://www.topografix.com/GPX/1/1 http://www.topografix.com/GPX/1/1/gpx.xsd" version="1.1" creator="VisuGPX - https://www.visugpx.com">
  <metadata>
    <name>Tour du Golfe du Morbihan - Hennebont - Vannes</name>
    <desc><![CDATA[Eté 2021 - En famille dans le Morbihan.
Rando faite sur 10 jours avec 3 enfants : 10 ans 8 ans et 4 ans (tracté en followme sur une bonne partie)
Belle routes et très beau paysages.
Revêtements de  route variés et toujours agréables, ce qui rompt la monotonie de la journée.
Très recommandé!
Nous n'avons pas eu plus de souci que cela lors des moments sur route partagées, même en forte période estivales, les petites routes que nous avons prises étaient très peu fréquentées.
]]></desc>
  </metadata>
  <trk>
    <name><![CDATA[La trinité - Saint Philibert]]></name>
    <extensions>
      <line xmlns="http://www.topografix.com/GPX/gpx_style/0/2">
        <color>0000ff</color>
        <width>9</width>
      </line>
    </extensions>
    <trkseg>
      <trkpt lat="47.5914" lon="-3.02843">
        <ele>3</ele>
        <time>2021-08-14T12:33:56Z</time>
      </trkpt>
      <trkpt lat="47.5914" lon="-3.02843">
        <ele>3</ele>
        <time>2021-08-14T12:33:56Z</time>
      </trkpt>
      <trkpt lat="47.59147" lon="-3.02835">
        <ele>3</ele>
        <time>2021-08-14T12:33:57Z</time>
      </trkpt>
      <trkpt lat="47.59154" lon="-3.02836">
        <ele>-5</ele>
        <time>2021-08-14T12:34:01Z</time>
      </trkpt>
      <trkpt lat="47.59159" lon="-3.02831">
        <ele>-5</ele>
        <time>2021-08-14T12:34:06Z</time>
      </trkpt>
      <trkpt lat="47.59163" lon="-3.02826">
        <ele>-1</ele>
        <time>2021-08-14T12:34:09Z</time>
      </trkpt>
      <trkpt lat="47.59167" lon="-3.0282">
        <ele>-1</ele>
        <time>2021-08-14T12:34:12Z</time>
      </trkpt>
      <trkpt lat="47.59174" lon="-3.02812">
        <ele>-24</ele>
        <time>2021-08-14T12:34:16Z</time>
      </trkpt>
      <trkpt lat="47.59177" lon="-3.02806">
        <ele>-24</ele>
        <time>2021-08-14T12:34:19Z</time>
      </trkpt>
      <trkpt lat="47.59181" lon="-3.028">
        <ele>14</ele>
        <time>2021-08-14T12:34:32Z</time>
      </trkpt>
      <trkpt lat="47.59187" lon="-3.02791">
        <ele>14</ele>
        <time>2021-08-14T12:34:36Z</time>
      </trkpt>
      <trkpt lat="47.59193" lon="-3.02788">
        <ele>10</ele>
        <time>2021-08-14T12:34:39Z</time>
      </trkpt>
      <trkpt lat="47.592" lon="-3.02791">
        <ele>10</ele>
        <time>2021-08-14T12:34:43Z</time>
      </trkpt>
      <trkpt lat="47.59205" lon="-3.02799">
        <ele>-11</ele>
        <time>2021-08-14T12:35:05Z</time>
      </trkpt>
      <trkpt lat="47.59209" lon="-3.02804">
        <ele>-11</ele>
        <time>2021-08-14T12:35:08Z</time>
      </trkpt>
      <trkpt lat="47.59211" lon="-3.02814">
        <ele>-6</ele>
        <time>2021-08-14T12:35:11Z</time>
      </trkpt>
      <trkpt lat="47.59207" lon="-3.02821">
        <ele>-6</ele>
        <time>2021-08-14T12:35:14Z</time>
      </trkpt>
      <trkpt lat="47.59203" lon="-3.0283">
        <ele>-3</ele>
        <time>2021-08-14T12:35:17Z</time>
      </trkpt>
      <trkpt lat="47.59197" lon="-3.02837">
        <ele>-3</ele>
        <time>2021-08-14T12:35:21Z</time>
      </trkpt>
      <trkpt lat="47.59193" lon="-3.02841">
        <ele>-4</ele>
        <time>2021-08-14T12:35:25Z</time>
      </trkpt>
      <trkpt lat="47.59196" lon="-3.02832">
        <ele>-4</ele>
        <time>2021-08-14T12:36:25Z</time>
      </trkpt>
      <trkpt lat="47.59201" lon="-3.02822">
        <ele>-2</ele>
        <time>2021-08-14T12:36:28Z</time>
      </trkpt>
      <trkpt lat="47.59204" lon="-3.02816">
        <ele>-2</ele>
        <time>2021-08-14T12:36:30Z</time>
      </trkpt>
      <trkpt lat="47.59209" lon="-3.02805">
        <ele>-6</ele>
        <time>2021-08-14T12:36:33Z</time>
      </trkpt>
      <trkpt lat="47.59213" lon="-3.02797">
        <ele>-6</ele>
        <time>2021-08-14T12:36:35Z</time>
      </trkpt>
      <trkpt lat="47.59218" lon="-3.02787">
        <ele>10</ele>
        <time>2021-08-14T12:36:38Z</time>
      </trkpt>
      <trkpt lat="47.59224" lon="-3.02781">
        <ele>10</ele>
        <time>2021-08-14T12:36:41Z</time>
      </trkpt>
      <trkpt lat="47.59227" lon="-3.02776">
        <ele>22</ele>
        <time>2021-08-14T12:36:43Z</time>
      </trkpt>
      <trkpt lat="47.59231" lon="-3.02769">
        <ele>22</ele>
        <time>2021-08-14T12:36:46Z</time>
      </trkpt>
      <trkpt lat="47.59237" lon="-3.02758">
        <ele>25</ele>
        <time>2021-08-14T12:36:50Z</time>
      </trkpt>
      <trkpt lat="47.5924" lon="-3.02752">
        <ele>25</ele>
        <time>2021-08-14T12:36:52Z</time>
      </trkpt>
      <trkpt lat="47.59243" lon="-3.02744">
        <ele>25</ele>
        <time>2021-08-14T12:36:55Z</time>
      </trkpt>
      <trkpt lat="47.59246" lon="-3.02737">
        <ele>13</ele>
        <time>2021-08-14T12:36:57Z</time>
      </trkpt>
      <trkpt lat="47.59249" lon="-3.02729">
        <ele>12</ele>
        <time>2021-08-14T12:37:00Z</time>
      </trkpt>
      <trkpt lat="47.59252" lon="-3.02718">
        <ele>12</ele>
        <time>2021-08-14T12:37:04Z</time>
      </trkpt>
      <trkpt lat="47.59254" lon="-3.02706">
        <ele>18</ele>
        <time>2021-08-14T12:37:08Z</time>
      </trkpt>
      <trkpt lat="47.59256" lon="-3.027">
        <ele>18</ele>
        <time>2021-08-14T12:37:10Z</time>
      </trkpt>
      <trkpt lat="47.59258" lon="-3.02691">
        <ele>18</ele>
        <time>2021-08-14T12:37:13Z</time>
      </trkpt>
      <trkpt lat="47.5926" lon="-3.02683">
        <ele>22</ele>
        <time>2021-08-14T12:37:16Z</time>
      </trkpt>
      <trkpt lat="47.59263" lon="-3.0267">
        <ele>22</ele>
        <time>2021-08-14T12:37:20Z</time>
      </trkpt>
      <trkpt lat="47.59265" lon="-3.0266">
        <ele>-18</ele>
        <time>2021-08-14T12:37:24Z</time>
      </trkpt>
      <trkpt lat="47.59269" lon="-3.02653">
        <ele>-18</ele>
        <time>2021-08-14T12:37:27Z</time>
      </trkpt>
      <trkpt lat="47.5927" lon="-3.02644">
        <ele>14</ele>
        <time>2021-08-14T12:37:30Z</time>
      </trkpt>
      <trkpt lat="47.59272" lon="-3.02637">
        <ele>-9</ele>
        <time>2021-08-14T12:37:33Z</time>
      </trkpt>
      <trkpt lat="47.59273" lon="-3.02627">
        <ele>-9</ele>
        <time>2021-08-14T12:37:37Z</time>
      </trkpt>
      <trkpt lat="47.59273" lon="-3.0262">
        <ele>22</ele>
        <time>2021-08-14T12:37:40Z</time>
      </trkpt>
      <trkpt lat="47.59275" lon="-3.02609">
        <ele>22</ele>
        <time>2021-08-14T12:37:45Z</time>
      </trkpt>
      <trkpt lat="47.59278" lon="-3.026">
        <ele>22</ele>
        <time>2021-08-14T12:37:49Z</time>
      </trkpt>
      <trkpt lat="47.5928" lon="-3.02592">
        <ele>22</ele>
        <time>2021-08-14T12:37:52Z</time>
      </trkpt>
      <trkpt lat="47.59283" lon="-3.02583">
        <ele>22</ele>
        <time>2021-08-14T12:37:56Z</time>
      </trkpt>
      <trkpt lat="47.59285" lon="-3.02576">
        <ele>11</ele>
        <time>2021-08-14T12:37:59Z</time>
      </trkpt>
      <trkpt lat="47.59287" lon="-3.02567">
        <ele>11</ele>
        <time>2021-08-14T12:38:04Z</time>
      </trkpt>
      <trkpt lat="47.59288" lon="-3.02558">
        <ele>22</ele>
        <time>2021-08-14T12:38:08Z</time>
      </trkpt>
      <trkpt lat="47.5929" lon="-3.02552">
        <ele>22</ele>
        <time>2021-08-14T12:38:11Z</time>
      </trkpt>
      <trkpt lat="47.59293" lon="-3.02542">
        <ele>15</ele>
        <time>2021-08-14T12:38:15Z</time>
      </trkpt>
      <trkpt lat="47.59293" lon="-3.02535">
        <ele>15</ele>
        <time>2021-08-14T12:38:18Z</time>
      </trkpt>
      <trkpt lat="47.59293" lon="-3.02526">
        <ele>18</ele>
        <time>2021-08-14T12:38:21Z</time>
      </trkpt>
      <trkpt lat="47.59294" lon="-3.02516">
        <ele>18</ele>
        <time>2021-08-14T12:38:24Z</time>
      </trkpt>
      <trkpt lat="47.59294" lon="-3.02507">
        <ele>2</ele>
        <time>2021-08-14T12:38:27Z</time>
      </trkpt>
      <trkpt lat="47.59293" lon="-3.02495">
        <ele>2</ele>
        <time>2021-08-14T12:38:31Z</time>
      </trkpt>
      <trkpt lat="47.59292" lon="-3.02487">
        <ele>19</ele>
        <time>2021-08-14T12:38:35Z</time>
      </trkpt>
      <trkpt lat="47.5929" lon="-3.02476">
        <ele>19</ele>
        <time>2021-08-14T12:38:40Z</time>
      </trkpt>
      <trkpt lat="47.59289" lon="-3.02469">
        <ele>18</ele>
        <time>2021-08-14T12:38:43Z</time>
      </trkpt>
      <trkpt lat="47.59286" lon="-3.02463">
        <ele>18</ele>
        <time>2021-08-14T12:38:47Z</time>
      </trkpt>
      <trkpt lat="47.59284" lon="-3.02458">
        <ele>6</ele>
        <time>2021-08-14T12:38:52Z</time>
      </trkpt>
      <trkpt lat="47.59278" lon="-3.02449">
        <ele>6</ele>
        <time>2021-08-14T12:39:08Z</time>
      </trkpt>
      <trkpt lat="47.59274" lon="-3.02441">
        <ele>-2</ele>
        <time>2021-08-14T12:39:12Z</time>
      </trkpt>
      <trkpt lat="47.59268" lon="-3.02434">
        <ele>-2</ele>
        <time>2021-08-14T12:39:16Z</time>
      </trkpt>
      <trkpt lat="47.59262" lon="-3.02425">
        <ele>9</ele>
        <time>2021-08-14T12:39:20Z</time>
      </trkpt>
      <trkpt lat="47.59258" lon="-3.02419">
        <ele>9</ele>
        <time>2021-08-14T12:39:23Z</time>
      </trkpt>
      <trkpt lat="47.59254" lon="-3.02414">
        <ele>-3</ele>
        <time>2021-08-14T12:39:26Z</time>
      </trkpt>
      <trkpt lat="47.59249" lon="-3.02407">
        <ele>-3</ele>
        <time>2021-08-14T12:39:30Z</time>
      </trkpt>
      <trkpt lat="47.59245" lon="-3.02401">
        <ele>18</ele>
        <time>2021-08-14T12:39:34Z</time>
      </trkpt>
      <trkpt lat="47.59241" lon="-3.02395">
        <ele>18</ele>
        <time>2021-08-14T12:39:37Z</time>
      </trkpt>
      <trkpt lat="47.59238" lon="-3.0239">
        <ele>7</ele>
        <time>2021-08-14T12:39:40Z</time>
      </trkpt>
      <trkpt lat="47.59234" lon="-3.02383">
        <ele>7</ele>
        <time>2021-08-14T12:39:45Z</time>
      </trkpt>
      <trkpt lat="47.59229" lon="-3.02379">
        <ele>34</ele>
        <time>2021-08-14T12:41:21Z</time>
      </trkpt>
      <trkpt lat="47.59226" lon="-3.02374">
        <ele>34</ele>
        <time>2021-08-14T12:41:28Z</time>
      </trkpt>
      <trkpt lat="47.59222" lon="-3.02368">
        <ele>30</ele>
        <time>2021-08-14T12:41:45Z</time>
      </trkpt>
      <trkpt lat="47.59219" lon="-3.02363">
        <ele>30</ele>
        <time>2021-08-14T12:41:48Z</time>
      </trkpt>
      <trkpt lat="47.59214" lon="-3.02357">
        <ele>9</ele>
        <time>2021-08-14T12:41:51Z</time>
      </trkpt>
      <trkpt lat="47.5921" lon="-3.02351">
        <ele>9</ele>
        <time>2021-08-14T12:41:54Z</time>
      </trkpt>
      <trkpt lat="47.59206" lon="-3.02346">
        <ele>10</ele>
        <time>2021-08-14T12:41:56Z</time>
      </trkpt>
      <trkpt lat="47.59203" lon="-3.0234">
        <ele>10</ele>
        <time>2021-08-14T12:41:58Z</time>
      </trkpt>
      <trkpt lat="47.59198" lon="-3.02333">
        <ele>6</ele>
        <time>2021-08-14T12:42:01Z</time>
      </trkpt>
      <trkpt lat="47.59195" lon="-3.02328">
        <ele>6</ele>
        <time>2021-08-14T12:42:03Z</time>
      </trkpt>
      <trkpt lat="47.59191" lon="-3.02323">
        <ele>9</ele>
        <time>2021-08-14T12:42:05Z</time>
      </trkpt>
      <trkpt lat="47.59185" lon="-3.02316">
        <ele>9</ele>
        <time>2021-08-14T12:42:08Z</time>
      </trkpt>
      <trkpt lat="47.59182" lon="-3.02311">
        <ele>18</ele>
        <time>2021-08-14T12:42:10Z</time>
      </trkpt>
      <trkpt lat="47.59176" lon="-3.02302">
        <ele>18</ele>
        <time>2021-08-14T12:42:14Z</time>
      </trkpt>
      <trkpt lat="47.59173" lon="-3.02297">
        <ele>24</ele>
        <time>2021-08-14T12:42:16Z</time>
      </trkpt>
      <trkpt lat="47.59169" lon="-3.02292">
        <ele>24</ele>
        <time>2021-08-14T12:42:18Z</time>
      </trkpt>
      <trkpt lat="47.59165" lon="-3.02286">
        <ele>14</ele>
        <time>2021-08-14T12:42:21Z</time>
      </trkpt>
      <trkpt lat="47.59158" lon="-3.02276">
        <ele>14</ele>
        <time>2021-08-14T12:42:25Z</time>
      </trkpt>
      <trkpt lat="47.59155" lon="-3.02271">
        <ele>12</ele>
        <time>2021-08-14T12:42:27Z</time>
      </trkpt>
      <trkpt lat="47.5915" lon="-3.02265">
        <ele>12</ele>
        <time>2021-08-14T12:42:30Z</time>
      </trkpt>
      <trkpt lat="47.59146" lon="-3.02257">
        <ele>29</ele>
        <time>2021-08-14T12:42:33Z</time>
      </trkpt>
      <trkpt lat="47.59142" lon="-3.02252">
        <ele>29</ele>
        <time>2021-08-14T12:42:35Z</time>
      </trkpt>
      <trkpt lat="47.59139" lon="-3.02247">
        <ele>32</ele>
        <time>2021-08-14T12:42:37Z</time>
      </trkpt>
      <trkpt lat="47.59135" lon="-3.02242">
        <ele>32</ele>
        <time>2021-08-14T12:42:39Z</time>
      </trkpt>
      <trkpt lat="47.59132" lon="-3.02238">
        <ele>19</ele>
        <time>2021-08-14T12:42:41Z</time>
      </trkpt>
      <trkpt lat="47.59127" lon="-3.02232">
        <ele>19</ele>
        <time>2021-08-14T12:42:44Z</time>
      </trkpt>
      <trkpt lat="47.59124" lon="-3.02226">
        <ele>14</ele>
        <time>2021-08-14T12:42:47Z</time>
      </trkpt>
      <trkpt lat="47.59121" lon="-3.02219">
        <ele>14</ele>
        <time>2021-08-14T12:42:50Z</time>
      </trkpt>
      <trkpt lat="47.59117" lon="-3.02214">
        <ele>24</ele>
        <time>2021-08-14T12:42:52Z</time>
      </trkpt>
      <trkpt lat="47.59114" lon="-3.02208">
        <ele>24</ele>
        <time>2021-08-14T12:42:54Z</time>
      </trkpt>
      <trkpt lat="47.59109" lon="-3.022">
        <ele>9</ele>
        <time>2021-08-14T12:42:57Z</time>
      </trkpt>
      <trkpt lat="47.59106" lon="-3.02194">
        <ele>9</ele>
        <time>2021-08-14T12:42:59Z</time>
      </trkpt>
      <trkpt lat="47.59105" lon="-3.02188">
        <ele>28</ele>
        <time>2021-08-14T12:43:01Z</time>
      </trkpt>
      <trkpt lat="47.59101" lon="-3.02179">
        <ele>28</ele>
        <time>2021-08-14T12:43:04Z</time>
      </trkpt>
      <trkpt lat="47.59096" lon="-3.02169">
        <ele>15</ele>
        <time>2021-08-14T12:43:08Z</time>
      </trkpt>
      <trkpt lat="47.59093" lon="-3.02163">
        <ele>15</ele>
        <time>2021-08-14T12:43:11Z</time>
      </trkpt>
      <trkpt lat="47.59088" lon="-3.02152">
        <ele>30</ele>
        <time>2021-08-14T12:43:15Z</time>
      </trkpt>
      <trkpt lat="47.59085" lon="-3.02147">
        <ele>30</ele>
        <time>2021-08-14T12:43:17Z</time>
      </trkpt>
      <trkpt lat="47.59082" lon="-3.02141">
        <ele>17</ele>
        <time>2021-08-14T12:43:19Z</time>
      </trkpt>
      <trkpt lat="47.59077" lon="-3.02136">
        <ele>17</ele>
        <time>2021-08-14T12:43:21Z</time>
      </trkpt>
      <trkpt lat="47.59071" lon="-3.02128">
        <ele>42</ele>
        <time>2021-08-14T12:43:24Z</time>
      </trkpt>
      <trkpt lat="47.59063" lon="-3.02119">
        <ele>42</ele>
        <time>2021-08-14T12:43:27Z</time>
      </trkpt>
      <trkpt lat="47.59058" lon="-3.02113">
        <ele>42</ele>
        <time>2021-08-14T12:43:29Z</time>
      </trkpt>
      <trkpt lat="47.59054" lon="-3.02106">
        <ele>42</ele>
        <time>2021-08-14T12:43:31Z</time>
      </trkpt>
      <trkpt lat="47.59047" lon="-3.02097">
        <ele>27</ele>
        <time>2021-08-14T12:43:34Z</time>
      </trkpt>
      <trkpt lat="47.59043" lon="-3.02091">
        <ele>27</ele>
        <time>2021-08-14T12:43:36Z</time>
      </trkpt>
      <trkpt lat="47.59039" lon="-3.02085">
        <ele>35</ele>
        <time>2021-08-14T12:43:38Z</time>
      </trkpt>
      <trkpt lat="47.59034" lon="-3.02077">
        <ele>35</ele>
        <time>2021-08-14T12:43:40Z</time>
      </trkpt>
      <trkpt lat="47.59029" lon="-3.0207">
        <ele>11</ele>
        <time>2021-08-14T12:43:42Z</time>
      </trkpt>
      <trkpt lat="47.59017" lon="-3.02059">
        <ele>11</ele>
        <time>2021-08-14T12:43:45Z</time>
      </trkpt>
      <trkpt lat="47.5901" lon="-3.02052">
        <ele>11</ele>
        <time>2021-08-14T12:43:47Z</time>
      </trkpt>
      <trkpt lat="47.59005" lon="-3.02047">
        <ele>11</ele>
        <time>2021-08-14T12:43:49Z</time>
      </trkpt>
      <trkpt lat="47.59002" lon="-3.02041">
        <ele>16</ele>
        <time>2021-08-14T12:43:52Z</time>
      </trkpt>
      <trkpt lat="47.58997" lon="-3.02034">
        <ele>16</ele>
        <time>2021-08-14T12:43:54Z</time>
      </trkpt>
      <trkpt lat="47.58992" lon="-3.02026">
        <ele>33</ele>
        <time>2021-08-14T12:43:56Z</time>
      </trkpt>
      <trkpt lat="47.58987" lon="-3.02019">
        <ele>33</ele>
        <time>2021-08-14T12:43:58Z</time>
      </trkpt>
      <trkpt lat="47.58981" lon="-3.02012">
        <ele>33</ele>
        <time>2021-08-14T12:44:00Z</time>
      </trkpt>
      <trkpt lat="47.58975" lon="-3.02004">
        <ele>33</ele>
        <time>2021-08-14T12:44:02Z</time>
      </trkpt>
      <trkpt lat="47.58971" lon="-3.02">
        <ele>33</ele>
        <time>2021-08-14T12:44:03Z</time>
      </trkpt>
      <trkpt lat="47.58965" lon="-3.01992">
        <ele>7</ele>
        <time>2021-08-14T12:44:05Z</time>
      </trkpt>
      <trkpt lat="47.58962" lon="-3.01986">
        <ele>7</ele>
        <time>2021-08-14T12:44:07Z</time>
      </trkpt>
      <trkpt lat="47.58958" lon="-3.0198">
        <ele>27</ele>
        <time>2021-08-14T12:44:09Z</time>
      </trkpt>
      <trkpt lat="47.58948" lon="-3.01969">
        <ele>15</ele>
        <time>2021-08-14T12:44:12Z</time>
      </trkpt>
      <trkpt lat="47.58942" lon="-3.0196">
        <ele>15</ele>
        <time>2021-08-14T12:44:14Z</time>
      </trkpt>
      <trkpt lat="47.58936" lon="-3.0195">
        <ele>9</ele>
        <time>2021-08-14T12:44:16Z</time>
      </trkpt>
      <trkpt lat="47.58931" lon="-3.01939">
        <ele>9</ele>
        <time>2021-08-14T12:44:18Z</time>
      </trkpt>
      <trkpt lat="47.58925" lon="-3.01929">
        <ele>13</ele>
        <time>2021-08-14T12:44:20Z</time>
      </trkpt>
      <trkpt lat="47.58921" lon="-3.01923">
        <ele>13</ele>
        <time>2021-08-14T12:44:21Z</time>
      </trkpt>
      <trkpt lat="47.58914" lon="-3.01909">
        <ele>21</ele>
        <time>2021-08-14T12:44:23Z</time>
      </trkpt>
      <trkpt lat="47.5891" lon="-3.01903">
        <ele>21</ele>
        <time>2021-08-14T12:44:24Z</time>
      </trkpt>
      <trkpt lat="47.58907" lon="-3.01898">
        <ele>21</ele>
        <time>2021-08-14T12:44:25Z</time>
      </trkpt>
      <trkpt lat="47.58905" lon="-3.0189">
        <ele>12</ele>
        <time>2021-08-14T12:44:51Z</time>
      </trkpt>
      <trkpt lat="47.589" lon="-3.01891">
        <ele>12</ele>
        <time>2021-08-14T12:44:54Z</time>
      </trkpt>
      <trkpt lat="47.58904" lon="-3.01907">
        <ele>15</ele>
        <time>2021-08-14T12:44:57Z</time>
      </trkpt>
      <trkpt lat="47.58909" lon="-3.01919">
        <ele>9</ele>
        <time>2021-08-14T12:45:00Z</time>
      </trkpt>
      <trkpt lat="47.58911" lon="-3.01928">
        <ele>9</ele>
        <time>2021-08-14T12:45:04Z</time>
      </trkpt>
      <trkpt lat="47.58908" lon="-3.01923">
        <ele>-16</ele>
        <time>2021-08-14T12:46:11Z</time>
      </trkpt>
      <trkpt lat="47.58905" lon="-3.01913">
        <ele>-16</ele>
        <time>2021-08-14T12:46:15Z</time>
      </trkpt>
      <trkpt lat="47.58902" lon="-3.01904">
        <ele>-10</ele>
        <time>2021-08-14T12:46:18Z</time>
      </trkpt>
      <trkpt lat="47.589" lon="-3.01894">
        <ele>-10</ele>
        <time>2021-08-14T12:46:21Z</time>
      </trkpt>
      <trkpt lat="47.58898" lon="-3.01886">
        <ele>31</ele>
        <time>2021-08-14T12:46:24Z</time>
      </trkpt>
      <trkpt lat="47.58895" lon="-3.01879">
        <ele>31</ele>
        <time>2021-08-14T12:46:27Z</time>
      </trkpt>
      <trkpt lat="47.58892" lon="-3.01869">
        <ele>7</ele>
        <time>2021-08-14T12:46:31Z</time>
      </trkpt>
      <trkpt lat="47.5889" lon="-3.01863">
        <ele>7</ele>
        <time>2021-08-14T12:46:34Z</time>
      </trkpt>
      <trkpt lat="47.58886" lon="-3.01854">
        <ele>29</ele>
        <time>2021-08-14T12:46:38Z</time>
      </trkpt>
      <trkpt lat="47.58884" lon="-3.01846">
        <ele>29</ele>
        <time>2021-08-14T12:46:41Z</time>
      </trkpt>
      <trkpt lat="47.58881" lon="-3.01839">
        <ele>5</ele>
        <time>2021-08-14T12:46:44Z</time>
      </trkpt>
      <trkpt lat="47.58878" lon="-3.01833">
        <ele>5</ele>
        <time>2021-08-14T12:46:46Z</time>
      </trkpt>
      <trkpt lat="47.58875" lon="-3.01824">
        <ele>6</ele>
        <time>2021-08-14T12:46:49Z</time>
      </trkpt>
      <trkpt lat="47.58872" lon="-3.01816">
        <ele>6</ele>
        <time>2021-08-14T12:46:52Z</time>
      </trkpt>
      <trkpt lat="47.5887" lon="-3.01807">
        <ele>-6</ele>
        <time>2021-08-14T12:46:55Z</time>
      </trkpt>
      <trkpt lat="47.58869" lon="-3.018">
        <ele>-6</ele>
        <time>2021-08-14T12:46:57Z</time>
      </trkpt>
      <trkpt lat="47.58868" lon="-3.01794">
        <ele>25</ele>
        <time>2021-08-14T12:46:59Z</time>
      </trkpt>
      <trkpt lat="47.58866" lon="-3.01781">
        <ele>25</ele>
        <time>2021-08-14T12:47:03Z</time>
      </trkpt>
      <trkpt lat="47.58864" lon="-3.01774">
        <ele>5</ele>
        <time>2021-08-14T12:47:05Z</time>
      </trkpt>
      <trkpt lat="47.58862" lon="-3.01768">
        <ele>5</ele>
        <time>2021-08-14T12:47:07Z</time>
      </trkpt>
      <trkpt lat="47.58859" lon="-3.01757">
        <ele>28</ele>
        <time>2021-08-14T12:47:10Z</time>
      </trkpt>
      <trkpt lat="47.58857" lon="-3.01746">
        <ele>28</ele>
        <time>2021-08-14T12:47:13Z</time>
      </trkpt>
      <trkpt lat="47.58854" lon="-3.01735">
        <ele>15</ele>
        <time>2021-08-14T12:47:16Z</time>
      </trkpt>
      <trkpt lat="47.58852" lon="-3.01728">
        <ele>15</ele>
        <time>2021-08-14T12:47:18Z</time>
      </trkpt>
      <trkpt lat="47.5885" lon="-3.01716">
        <ele>-12</ele>
        <time>2021-08-14T12:47:21Z</time>
      </trkpt>
      <trkpt lat="47.58848" lon="-3.01709">
        <ele>-12</ele>
        <time>2021-08-14T12:47:23Z</time>
      </trkpt>
      <trkpt lat="47.58844" lon="-3.01698">
        <ele>27</ele>
        <time>2021-08-14T12:47:26Z</time>
      </trkpt>
      <trkpt lat="47.5884" lon="-3.01692">
        <ele>27</ele>
        <time>2021-08-14T12:47:28Z</time>
      </trkpt>
      <trkpt lat="47.58838" lon="-3.01685">
        <ele>22</ele>
        <time>2021-08-14T12:47:30Z</time>
      </trkpt>
      <trkpt lat="47.58835" lon="-3.01679">
        <ele>22</ele>
        <time>2021-08-14T12:47:33Z</time>
      </trkpt>
      <trkpt lat="47.58832" lon="-3.01674">
        <ele>25</ele>
        <time>2021-08-14T12:47:37Z</time>
      </trkpt>
      <trkpt lat="47.58828" lon="-3.01668">
        <ele>25</ele>
        <time>2021-08-14T12:47:42Z</time>
      </trkpt>
      <trkpt lat="47.58822" lon="-3.01661">
        <ele>29</ele>
        <time>2021-08-14T12:47:47Z</time>
      </trkpt>
      <trkpt lat="47.58816" lon="-3.01657">
        <ele>29</ele>
        <time>2021-08-14T12:47:50Z</time>
      </trkpt>
      <trkpt lat="47.58808" lon="-3.01656">
        <ele>22</ele>
        <time>2021-08-14T12:47:53Z</time>
      </trkpt>
      <trkpt lat="47.58803" lon="-3.01655">
        <ele>22</ele>
        <time>2021-08-14T12:47:55Z</time>
      </trkpt>
      <trkpt lat="47.58797" lon="-3.01654">
        <ele>14</ele>
        <time>2021-08-14T12:47:57Z</time>
      </trkpt>
      <trkpt lat="47.58791" lon="-3.01653">
        <ele>14</ele>
        <time>2021-08-14T12:47:59Z</time>
      </trkpt>
      <trkpt lat="47.58784" lon="-3.01651">
        <ele>13</ele>
        <time>2021-08-14T12:48:01Z</time>
      </trkpt>
      <trkpt lat="47.58778" lon="-3.0165">
        <ele>13</ele>
        <time>2021-08-14T12:48:03Z</time>
      </trkpt>
      <trkpt lat="47.58772" lon="-3.01648">
        <ele>11</ele>
        <time>2021-08-14T12:48:05Z</time>
      </trkpt>
      <trkpt lat="47.58765" lon="-3.01647">
        <ele>11</ele>
        <time>2021-08-14T12:48:07Z</time>
      </trkpt>
      <trkpt lat="47.58758" lon="-3.01645">
        <ele>29</ele>
        <time>2021-08-14T12:48:09Z</time>
      </trkpt>
      <trkpt lat="47.58752" lon="-3.01643">
        <ele>29</ele>
        <time>2021-08-14T12:48:11Z</time>
      </trkpt>
      <trkpt lat="47.58747" lon="-3.01641">
        <ele>29</ele>
        <time>2021-08-14T12:48:35Z</time>
      </trkpt>
      <trkpt lat="47.58748" lon="-3.01635">
        <ele>-4</ele>
        <time>2021-08-14T12:48:39Z</time>
      </trkpt>
      <trkpt lat="47.58754" lon="-3.01633">
        <ele>-7</ele>
        <time>2021-08-14T12:48:42Z</time>
      </trkpt>
      <trkpt lat="47.58759" lon="-3.0163">
        <ele>-7</ele>
        <time>2021-08-14T12:48:46Z</time>
      </trkpt>
      <trkpt lat="47.58761" lon="-3.01619">
        <ele>17</ele>
        <time>2021-08-14T12:48:49Z</time>
      </trkpt>
      <trkpt lat="47.58761" lon="-3.01607">
        <ele>17</ele>
        <time>2021-08-14T12:48:51Z</time>
      </trkpt>
      <trkpt lat="47.58764" lon="-3.01588">
        <ele>5</ele>
        <time>2021-08-14T12:48:54Z</time>
      </trkpt>
      <trkpt lat="47.58765" lon="-3.01575">
        <ele>5</ele>
        <time>2021-08-14T12:48:56Z</time>
      </trkpt>
      <trkpt lat="47.58767" lon="-3.01563">
        <ele>15</ele>
        <time>2021-08-14T12:48:58Z</time>
      </trkpt>
      <trkpt lat="47.5877" lon="-3.01545">
        <ele>15</ele>
        <time>2021-08-14T12:49:01Z</time>
      </trkpt>
      <trkpt lat="47.58772" lon="-3.01535">
        <ele>9</ele>
        <time>2021-08-14T12:49:03Z</time>
      </trkpt>
      <trkpt lat="47.58774" lon="-3.01519">
        <ele>9</ele>
        <time>2021-08-14T12:49:06Z</time>
      </trkpt>
      <trkpt lat="47.58776" lon="-3.01509">
        <ele>-13</ele>
        <time>2021-08-14T12:49:08Z</time>
      </trkpt>
      <trkpt lat="47.58777" lon="-3.015">
        <ele>-13</ele>
        <time>2021-08-14T12:49:10Z</time>
      </trkpt>
      <trkpt lat="47.58777" lon="-3.0149">
        <ele>8</ele>
        <time>2021-08-14T12:49:12Z</time>
      </trkpt>
      <trkpt lat="47.58777" lon="-3.01481">
        <ele>8</ele>
        <time>2021-08-14T12:49:14Z</time>
      </trkpt>
      <trkpt lat="47.58776" lon="-3.01469">
        <ele>6</ele>
        <time>2021-08-14T12:49:17Z</time>
      </trkpt>
      <trkpt lat="47.58776" lon="-3.01462">
        <ele>6</ele>
        <time>2021-08-14T12:49:19Z</time>
      </trkpt>
      <trkpt lat="47.58776" lon="-3.01451">
        <ele>9.7</ele>
        <time>2021-08-14T12:49:22Z</time>
      </trkpt>
      <trkpt lat="47.58777" lon="-3.01444">
        <ele>9.8</ele>
        <time>2021-08-14T12:49:24Z</time>
      </trkpt>
      <trkpt lat="47.58778" lon="-3.01431">
        <ele>3</ele>
        <time>2021-08-14T12:49:28Z</time>
      </trkpt>
      <trkpt lat="47.58779" lon="-3.01423">
        <ele>3</ele>
        <time>2021-08-14T12:49:31Z</time>
      </trkpt>
      <trkpt lat="47.58778" lon="-3.01414">
        <ele>20</ele>
        <time>2021-08-14T12:49:34Z</time>
      </trkpt>
      <trkpt lat="47.58774" lon="-3.01405">
        <ele>20</ele>
        <time>2021-08-14T12:49:38Z</time>
      </trkpt>
      <trkpt lat="47.58768" lon="-3.01403">
        <ele>26</ele>
        <time>2021-08-14T12:49:41Z</time>
      </trkpt>
      <trkpt lat="47.58763" lon="-3.01404">
        <ele>26</ele>
        <time>2021-08-14T12:49:43Z</time>
      </trkpt>
      <trkpt lat="47.58758" lon="-3.01405">
        <ele>6</ele>
        <time>2021-08-14T12:49:45Z</time>
      </trkpt>
      <trkpt lat="47.58752" lon="-3.01409">
        <ele>6</ele>
        <time>2021-08-14T12:49:48Z</time>
      </trkpt>
      <trkpt lat="47.58747" lon="-3.01411">
        <ele>6</ele>
        <time>2021-08-14T12:49:50Z</time>
      </trkpt>
      <trkpt lat="47.58741" lon="-3.0141">
        <ele>13</ele>
        <time>2021-08-14T12:49:52Z</time>
      </trkpt>
      <trkpt lat="47.58737" lon="-3.01406">
        <ele>13</ele>
        <time>2021-08-14T12:49:54Z</time>
      </trkpt>
      <trkpt lat="47.58735" lon="-3.01399">
        <ele>12</ele>
        <time>2021-08-14T12:49:56Z</time>
      </trkpt>
      <trkpt lat="47.58733" lon="-3.01388">
        <ele>-1</ele>
        <time>2021-08-14T12:49:59Z</time>
      </trkpt>
      <trkpt lat="47.58732" lon="-3.0138">
        <ele>-1</ele>
        <time>2021-08-14T12:50:01Z</time>
      </trkpt>
      <trkpt lat="47.58731" lon="-3.01372">
        <ele>20</ele>
        <time>2021-08-14T12:50:03Z</time>
      </trkpt>
      <trkpt lat="47.58729" lon="-3.01365">
        <ele>20</ele>
        <time>2021-08-14T12:50:05Z</time>
      </trkpt>
      <trkpt lat="47.58727" lon="-3.01357">
        <ele>20</ele>
        <time>2021-08-14T12:50:07Z</time>
      </trkpt>
      <trkpt lat="47.58727" lon="-3.01347">
        <ele>12</ele>
        <time>2021-08-14T12:50:09Z</time>
      </trkpt>
      <trkpt lat="47.58726" lon="-3.01338">
        <ele>9</ele>
        <time>2021-08-14T12:50:11Z</time>
      </trkpt>
      <trkpt lat="47.58725" lon="-3.01328">
        <ele>9</ele>
        <time>2021-08-14T12:50:13Z</time>
      </trkpt>
      <trkpt lat="47.58725" lon="-3.01319">
        <ele>1</ele>
        <time>2021-08-14T12:50:15Z</time>
      </trkpt>
      <trkpt lat="47.58724" lon="-3.01309">
        <ele>1</ele>
        <time>2021-08-14T12:50:17Z</time>
      </trkpt>
      <trkpt lat="47.58723" lon="-3.01298">
        <ele>16</ele>
        <time>2021-08-14T12:50:19Z</time>
      </trkpt>
      <trkpt lat="47.58722" lon="-3.01287">
        <ele>16</ele>
        <time>2021-08-14T12:50:21Z</time>
      </trkpt>
      <trkpt lat="47.5872" lon="-3.01272">
        <ele>-14</ele>
        <time>2021-08-14T12:50:24Z</time>
      </trkpt>
      <trkpt lat="47.58718" lon="-3.01259">
        <ele>-14</ele>
        <time>2021-08-14T12:50:27Z</time>
      </trkpt>
      <trkpt lat="47.58714" lon="-3.01247">
        <ele>4</ele>
        <time>2021-08-14T12:50:30Z</time>
      </trkpt>
      <trkpt lat="47.58712" lon="-3.01237">
        <ele>4</ele>
        <time>2021-08-14T12:50:32Z</time>
      </trkpt>
      <trkpt lat="47.58708" lon="-3.01224">
        <ele>12</ele>
        <time>2021-08-14T12:50:35Z</time>
      </trkpt>
      <trkpt lat="47.587" lon="-3.01217">
        <ele>12</ele>
        <time>2021-08-14T12:50:38Z</time>
      </trkpt>
      <trkpt lat="47.58692" lon="-3.01213">
        <ele>6</ele>
        <time>2021-08-14T12:50:41Z</time>
      </trkpt>
      <trkpt lat="47.58684" lon="-3.01213">
        <ele>6</ele>
        <time>2021-08-14T12:50:44Z</time>
      </trkpt>
      <trkpt lat="47.58679" lon="-3.01214">
        <ele>6</ele>
        <time>2021-08-14T12:50:46Z</time>
      </trkpt>
      <trkpt lat="47.58672" lon="-3.01214">
        <ele>-3</ele>
        <time>2021-08-14T12:50:49Z</time>
      </trkpt>
      <trkpt lat="47.58665" lon="-3.01214">
        <ele>33</ele>
        <time>2021-08-14T12:50:52Z</time>
      </trkpt>
      <trkpt lat="47.5866" lon="-3.01217">
        <ele>33</ele>
        <time>2021-08-14T12:50:55Z</time>
      </trkpt>
      <trkpt lat="47.58654" lon="-3.0122">
        <ele>4</ele>
        <time>2021-08-14T12:50:58Z</time>
      </trkpt>
      <trkpt lat="47.58649" lon="-3.0122">
        <ele>4</ele>
        <time>2021-08-14T12:51:49Z</time>
      </trkpt>
      <trkpt lat="47.58642" lon="-3.01219">
        <ele>2</ele>
        <time>2021-08-14T12:54:38Z</time>
      </trkpt>
      <trkpt lat="47.58649" lon="-3.01219">
        <ele>27</ele>
        <time>2021-08-14T12:54:44Z</time>
      </trkpt>
      <trkpt lat="47.58644" lon="-3.01216">
        <ele>27</ele>
        <time>2021-08-14T12:54:47Z</time>
      </trkpt>
      <trkpt lat="47.5865" lon="-3.01217">
        <ele>16</ele>
        <time>2021-08-14T12:55:02Z</time>
      </trkpt>
      <trkpt lat="47.58655" lon="-3.01215">
        <ele>16</ele>
        <time>2021-08-14T12:59:13Z</time>
      </trkpt>
      <trkpt lat="47.58661" lon="-3.01213">
        <ele>16</ele>
        <time>2021-08-14T12:59:17Z</time>
      </trkpt>
      <trkpt lat="47.58669" lon="-3.01212">
        <ele>16</ele>
        <time>2021-08-14T12:59:21Z</time>
      </trkpt>
      <trkpt lat="47.58674" lon="-3.01212">
        <ele>16</ele>
        <time>2021-08-14T12:59:23Z</time>
      </trkpt>
      <trkpt lat="47.58683" lon="-3.01212">
        <ele>15</ele>
        <time>2021-08-14T12:59:26Z</time>
      </trkpt>
      <trkpt lat="47.58693" lon="-3.01214">
        <ele>23</ele>
        <time>2021-08-14T12:59:29Z</time>
      </trkpt>
      <trkpt lat="47.58699" lon="-3.01216">
        <ele>23</ele>
        <time>2021-08-14T12:59:31Z</time>
      </trkpt>
      <trkpt lat="47.58705" lon="-3.01222">
        <ele>5</ele>
        <time>2021-08-14T12:59:33Z</time>
      </trkpt>
      <trkpt lat="47.58711" lon="-3.0123">
        <ele>5</ele>
        <time>2021-08-14T12:59:35Z</time>
      </trkpt>
      <trkpt lat="47.58714" lon="-3.0124">
        <ele>5</ele>
        <time>2021-08-14T12:59:37Z</time>
      </trkpt>
      <trkpt lat="47.58717" lon="-3.01254">
        <ele>8</ele>
        <time>2021-08-14T12:59:40Z</time>
      </trkpt>
      <trkpt lat="47.5872" lon="-3.01262">
        <ele>17</ele>
        <time>2021-08-14T12:59:42Z</time>
      </trkpt>
      <trkpt lat="47.58723" lon="-3.0127">
        <ele>17</ele>
        <time>2021-08-14T12:59:44Z</time>
      </trkpt>
      <trkpt lat="47.58725" lon="-3.01279">
        <ele>21</ele>
        <time>2021-08-14T12:59:46Z</time>
      </trkpt>
      <trkpt lat="47.58727" lon="-3.01287">
        <ele>21</ele>
        <time>2021-08-14T12:59:48Z</time>
      </trkpt>
      <trkpt lat="47.58729" lon="-3.01299">
        <ele>21</ele>
        <time>2021-08-14T12:59:51Z</time>
      </trkpt>
      <trkpt lat="47.5873" lon="-3.01309">
        <ele>2</ele>
        <time>2021-08-14T12:59:53Z</time>
      </trkpt>
      <trkpt lat="47.5873" lon="-3.01323">
        <ele>2</ele>
        <time>2021-08-14T12:59:56Z</time>
      </trkpt>
      <trkpt lat="47.5873" lon="-3.01332">
        <ele>3</ele>
        <time>2021-08-14T12:59:58Z</time>
      </trkpt>
      <trkpt lat="47.5873" lon="-3.01345">
        <ele>9</ele>
        <time>2021-08-14T13:00:01Z</time>
      </trkpt>
      <trkpt lat="47.58731" lon="-3.01352">
        <ele>9</ele>
        <time>2021-08-14T13:00:03Z</time>
      </trkpt>
      <trkpt lat="47.58731" lon="-3.01363">
        <ele>17</ele>
        <time>2021-08-14T13:00:07Z</time>
      </trkpt>
      <trkpt lat="47.58733" lon="-3.01371">
        <ele>17</ele>
        <time>2021-08-14T13:00:10Z</time>
      </trkpt>
      <trkpt lat="47.58734" lon="-3.01382">
        <ele>17</ele>
        <time>2021-08-14T13:00:14Z</time>
      </trkpt>
      <trkpt lat="47.58735" lon="-3.01394">
        <ele>16</ele>
        <time>2021-08-14T13:00:18Z</time>
      </trkpt>
      <trkpt lat="47.58737" lon="-3.01404">
        <ele>16</ele>
        <time>2021-08-14T13:00:22Z</time>
      </trkpt>
      <trkpt lat="47.58741" lon="-3.01409">
        <ele>16</ele>
        <time>2021-08-14T13:00:25Z</time>
      </trkpt>
      <trkpt lat="47.58746" lon="-3.01412">
        <ele>5</ele>
        <time>2021-08-14T13:00:28Z</time>
      </trkpt>
      <trkpt lat="47.58752" lon="-3.0141">
        <ele>5</ele>
        <time>2021-08-14T13:00:31Z</time>
      </trkpt>
      <trkpt lat="47.58757" lon="-3.01407">
        <ele>3</ele>
        <time>2021-08-14T13:00:34Z</time>
      </trkpt>
      <trkpt lat="47.58761" lon="-3.01404">
        <ele>3</ele>
        <time>2021-08-14T13:00:36Z</time>
      </trkpt>
      <trkpt lat="47.58767" lon="-3.01404">
        <ele>10</ele>
        <time>2021-08-14T13:00:38Z</time>
      </trkpt>
      <trkpt lat="47.58772" lon="-3.01404">
        <ele>10</ele>
        <time>2021-08-14T13:00:40Z</time>
      </trkpt>
      <trkpt lat="47.58778" lon="-3.01408">
        <ele>15</ele>
        <time>2021-08-14T13:00:43Z</time>
      </trkpt>
      <trkpt lat="47.5878" lon="-3.01416">
        <ele>15</ele>
        <time>2021-08-14T13:00:45Z</time>
      </trkpt>
      <trkpt lat="47.58781" lon="-3.01428">
        <ele>5</ele>
        <time>2021-08-14T13:00:48Z</time>
      </trkpt>
      <trkpt lat="47.58782" lon="-3.01439">
        <ele>5</ele>
        <time>2021-08-14T13:00:51Z</time>
      </trkpt>
      <trkpt lat="47.58782" lon="-3.01448">
        <ele>-7</ele>
        <time>2021-08-14T13:00:53Z</time>
      </trkpt>
      <trkpt lat="47.58781" lon="-3.01458">
        <ele>-7</ele>
        <time>2021-08-14T13:00:55Z</time>
      </trkpt>
      <trkpt lat="47.58781" lon="-3.01468">
        <ele>-7</ele>
        <time>2021-08-14T13:00:57Z</time>
      </trkpt>
      <trkpt lat="47.5878" lon="-3.01479">
        <ele>16</ele>
        <time>2021-08-14T13:00:59Z</time>
      </trkpt>
      <trkpt lat="47.5878" lon="-3.01489">
        <ele>16</ele>
        <time>2021-08-14T13:01:01Z</time>
      </trkpt>
      <trkpt lat="47.58779" lon="-3.015">
        <ele>-7</ele>
        <time>2021-08-14T13:01:03Z</time>
      </trkpt>
      <trkpt lat="47.58779" lon="-3.01512">
        <ele>-7</ele>
        <time>2021-08-14T13:01:05Z</time>
      </trkpt>
      <trkpt lat="47.58777" lon="-3.01524">
        <ele>5</ele>
        <time>2021-08-14T13:01:07Z</time>
      </trkpt>
      <trkpt lat="47.58774" lon="-3.01536">
        <ele>5</ele>
        <time>2021-08-14T13:01:09Z</time>
      </trkpt>
      <trkpt lat="47.58771" lon="-3.01548">
        <ele>13</ele>
        <time>2021-08-14T13:01:11Z</time>
      </trkpt>
      <trkpt lat="47.58769" lon="-3.01559">
        <ele>13</ele>
        <time>2021-08-14T13:01:13Z</time>
      </trkpt>
      <trkpt lat="47.58767" lon="-3.0157">
        <ele>5</ele>
        <time>2021-08-14T13:01:15Z</time>
      </trkpt>
      <trkpt lat="47.58766" lon="-3.0158">
        <ele>5</ele>
        <time>2021-08-14T13:01:17Z</time>
      </trkpt>
      <trkpt lat="47.58764" lon="-3.01596">
        <ele>11</ele>
        <time>2021-08-14T13:01:20Z</time>
      </trkpt>
      <trkpt lat="47.58763" lon="-3.01605">
        <ele>16</ele>
        <time>2021-08-14T13:01:22Z</time>
      </trkpt>
      <trkpt lat="47.58763" lon="-3.01613">
        <ele>16</ele>
        <time>2021-08-14T13:01:24Z</time>
      </trkpt>
      <trkpt lat="47.58763" lon="-3.01622">
        <ele>17</ele>
        <time>2021-08-14T13:01:27Z</time>
      </trkpt>
      <trkpt lat="47.58763" lon="-3.01629">
        <ele>17</ele>
        <time>2021-08-14T13:01:33Z</time>
      </trkpt>
      <trkpt lat="47.5876" lon="-3.01634">
        <ele>32</ele>
        <time>2021-08-14T13:01:38Z</time>
      </trkpt>
      <trkpt lat="47.58754" lon="-3.01636">
        <ele>32</ele>
        <time>2021-08-14T13:01:40Z</time>
      </trkpt>
      <trkpt lat="47.58747" lon="-3.01635">
        <ele>32</ele>
        <time>2021-08-14T13:01:42Z</time>
      </trkpt>
      <trkpt lat="47.58736" lon="-3.01634">
        <ele>2</ele>
        <time>2021-08-14T13:01:45Z</time>
      </trkpt>
      <trkpt lat="47.58728" lon="-3.01633">
        <ele>14</ele>
        <time>2021-08-14T13:01:47Z</time>
      </trkpt>
      <trkpt lat="47.58721" lon="-3.01631">
        <ele>14</ele>
        <time>2021-08-14T13:01:49Z</time>
      </trkpt>
      <trkpt lat="47.58715" lon="-3.0163">
        <ele>14</ele>
        <time>2021-08-14T13:01:51Z</time>
      </trkpt>
      <trkpt lat="47.58709" lon="-3.01628">
        <ele>7</ele>
        <time>2021-08-14T13:01:53Z</time>
      </trkpt>
      <trkpt lat="47.58702" lon="-3.01627">
        <ele>7</ele>
        <time>2021-08-14T13:01:55Z</time>
      </trkpt>
      <trkpt lat="47.58695" lon="-3.01626">
        <ele>7</ele>
        <time>2021-08-14T13:01:57Z</time>
      </trkpt>
      <trkpt lat="47.58689" lon="-3.01625">
        <ele>-3</ele>
        <time>2021-08-14T13:01:59Z</time>
      </trkpt>
      <trkpt lat="47.58684" lon="-3.01624">
        <ele>-3</ele>
        <time>2021-08-14T13:02:01Z</time>
      </trkpt>
      <trkpt lat="47.58679" lon="-3.01623">
        <ele>-3</ele>
        <time>2021-08-14T13:02:03Z</time>
      </trkpt>
      <trkpt lat="47.5867" lon="-3.01622">
        <ele>4</ele>
        <time>2021-08-14T13:02:06Z</time>
      </trkpt>
      <trkpt lat="47.58665" lon="-3.01621">
        <ele>4</ele>
        <time>2021-08-14T13:02:08Z</time>
      </trkpt>
      <trkpt lat="47.58656" lon="-3.01619">
        <ele>22</ele>
        <time>2021-08-14T13:02:11Z</time>
      </trkpt>
      <trkpt lat="47.5865" lon="-3.01618">
        <ele>19</ele>
        <time>2021-08-14T13:02:13Z</time>
      </trkpt>
      <trkpt lat="47.58645" lon="-3.01617">
        <ele>19</ele>
        <time>2021-08-14T13:02:15Z</time>
      </trkpt>
      <trkpt lat="47.58639" lon="-3.01616">
        <ele>-2</ele>
        <time>2021-08-14T13:02:17Z</time>
      </trkpt>
      <trkpt lat="47.58634" lon="-3.01615">
        <ele>-2</ele>
        <time>2021-08-14T13:02:19Z</time>
      </trkpt>
      <trkpt lat="47.58628" lon="-3.01614">
        <ele>-2</ele>
        <time>2021-08-14T13:02:21Z</time>
      </trkpt>
      <trkpt lat="47.58621" lon="-3.01611">
        <ele>32</ele>
        <time>2021-08-14T13:02:24Z</time>
      </trkpt>
      <trkpt lat="47.58613" lon="-3.01609">
        <ele>32</ele>
        <time>2021-08-14T13:02:27Z</time>
      </trkpt>
      <trkpt lat="47.58607" lon="-3.01608">
        <ele>6</ele>
        <time>2021-08-14T13:02:29Z</time>
      </trkpt>
      <trkpt lat="47.586" lon="-3.01606">
        <ele>6</ele>
        <time>2021-08-14T13:02:32Z</time>
      </trkpt>
      <trkpt lat="47.58594" lon="-3.01605">
        <ele>24</ele>
        <time>2021-08-14T13:02:34Z</time>
      </trkpt>
      <trkpt lat="47.58584" lon="-3.01603">
        <ele>24</ele>
        <time>2021-08-14T13:02:37Z</time>
      </trkpt>
      <trkpt lat="47.58574" lon="-3.01601">
        <ele>29</ele>
        <time>2021-08-14T13:02:40Z</time>
      </trkpt>
      <trkpt lat="47.58566" lon="-3.01599">
        <ele>29</ele>
        <time>2021-08-14T13:02:42Z</time>
      </trkpt>
      <trkpt lat="47.58559" lon="-3.01596">
        <ele>12</ele>
        <time>2021-08-14T13:02:44Z</time>
      </trkpt>
      <trkpt lat="47.58552" lon="-3.01594">
        <ele>12</ele>
        <time>2021-08-14T13:02:46Z</time>
      </trkpt>
      <trkpt lat="47.58545" lon="-3.01593">
        <ele>25</ele>
        <time>2021-08-14T13:02:48Z</time>
      </trkpt>
      <trkpt lat="47.58539" lon="-3.01592">
        <ele>25</ele>
        <time>2021-08-14T13:02:50Z</time>
      </trkpt>
      <trkpt lat="47.58529" lon="-3.0159">
        <ele>19</ele>
        <time>2021-08-14T13:02:53Z</time>
      </trkpt>
      <trkpt lat="47.58519" lon="-3.01587">
        <ele>19</ele>
        <time>2021-08-14T13:02:56Z</time>
      </trkpt>
      <trkpt lat="47.58508" lon="-3.01585">
        <ele>11</ele>
        <time>2021-08-14T13:02:59Z</time>
      </trkpt>
      <trkpt lat="47.58502" lon="-3.01584">
        <ele>11</ele>
        <time>2021-08-14T13:03:01Z</time>
      </trkpt>
      <trkpt lat="47.58493" lon="-3.01582">
        <ele>8</ele>
        <time>2021-08-14T13:03:04Z</time>
      </trkpt>
      <trkpt lat="47.58487" lon="-3.0158">
        <ele>8</ele>
        <time>2021-08-14T13:03:06Z</time>
      </trkpt>
      <trkpt lat="47.58476" lon="-3.01576">
        <ele>22</ele>
        <time>2021-08-14T13:03:09Z</time>
      </trkpt>
      <trkpt lat="47.58469" lon="-3.01573">
        <ele>22</ele>
        <time>2021-08-14T13:03:11Z</time>
      </trkpt>
      <trkpt lat="47.58459" lon="-3.0157">
        <ele>13</ele>
        <time>2021-08-14T13:03:13Z</time>
      </trkpt>
      <trkpt lat="47.58451" lon="-3.01567">
        <ele>13</ele>
        <time>2021-08-14T13:03:15Z</time>
      </trkpt>
      <trkpt lat="47.5844" lon="-3.01561">
        <ele>21</ele>
        <time>2021-08-14T13:03:18Z</time>
      </trkpt>
      <trkpt lat="47.58431" lon="-3.01556">
        <ele>21</ele>
        <time>2021-08-14T13:03:21Z</time>
      </trkpt>
      <trkpt lat="47.58425" lon="-3.01551">
        <ele>18</ele>
        <time>2021-08-14T13:03:23Z</time>
      </trkpt>
      <trkpt lat="47.58418" lon="-3.01543">
        <ele>18</ele>
        <time>2021-08-14T13:03:25Z</time>
      </trkpt>
      <trkpt lat="47.58414" lon="-3.01537">
        <ele>18</ele>
        <time>2021-08-14T13:03:27Z</time>
      </trkpt>
      <trkpt lat="47.58405" lon="-3.01524">
        <ele>10</ele>
        <time>2021-08-14T13:03:30Z</time>
      </trkpt>
      <trkpt lat="47.58398" lon="-3.01515">
        <ele>10</ele>
        <time>2021-08-14T13:03:32Z</time>
      </trkpt>
      <trkpt lat="47.58391" lon="-3.01503">
        <ele>4</ele>
        <time>2021-08-14T13:03:34Z</time>
      </trkpt>
      <trkpt lat="47.58384" lon="-3.01487">
        <ele>1</ele>
        <time>2021-08-14T13:03:36Z</time>
      </trkpt>
      <trkpt lat="47.5838" lon="-3.01479">
        <ele>1</ele>
        <time>2021-08-14T13:03:37Z</time>
      </trkpt>
      <trkpt lat="47.58377" lon="-3.01471">
        <ele>1</ele>
        <time>2021-08-14T13:03:38Z</time>
      </trkpt>
      <trkpt lat="47.58371" lon="-3.01453">
        <ele>8</ele>
        <time>2021-08-14T13:03:40Z</time>
      </trkpt>
      <trkpt lat="47.58369" lon="-3.01445">
        <ele>8</ele>
        <time>2021-08-14T13:03:41Z</time>
      </trkpt>
      <trkpt lat="47.58363" lon="-3.01427">
        <ele>6</ele>
        <time>2021-08-14T13:03:43Z</time>
      </trkpt>
      <trkpt lat="47.5836" lon="-3.01419">
        <ele>-4</ele>
        <time>2021-08-14T13:03:44Z</time>
      </trkpt>
      <trkpt lat="47.58356" lon="-3.0141">
        <ele>-4</ele>
        <time>2021-08-14T13:03:45Z</time>
      </trkpt>
      <trkpt lat="47.58353" lon="-3.01401">
        <ele>-4</ele>
        <time>2021-08-14T13:03:46Z</time>
      </trkpt>
      <trkpt lat="47.5835" lon="-3.01393">
        <ele>-4</ele>
        <time>2021-08-14T13:03:47Z</time>
      </trkpt>
      <trkpt lat="47.58347" lon="-3.01384">
        <ele>-4</ele>
        <time>2021-08-14T13:03:48Z</time>
      </trkpt>
      <trkpt lat="47.58341" lon="-3.01367">
        <ele>6</ele>
        <time>2021-08-14T13:03:50Z</time>
      </trkpt>
      <trkpt lat="47.58335" lon="-3.01352">
        <ele>8</ele>
        <time>2021-08-14T13:03:52Z</time>
      </trkpt>
      <trkpt lat="47.58333" lon="-3.01346">
        <ele>8</ele>
        <time>2021-08-14T13:03:53Z</time>
      </trkpt>
      <trkpt lat="47.58329" lon="-3.01334">
        <ele>21</ele>
        <time>2021-08-14T13:03:55Z</time>
      </trkpt>
      <trkpt lat="47.58327" lon="-3.01328">
        <ele>21</ele>
        <time>2021-08-14T13:03:56Z</time>
      </trkpt>
      <trkpt lat="47.58325" lon="-3.01322">
        <ele>21</ele>
        <time>2021-08-14T13:03:57Z</time>
      </trkpt>
      <trkpt lat="47.5832" lon="-3.01311">
        <ele>19</ele>
        <time>2021-08-14T13:03:59Z</time>
      </trkpt>
      <trkpt lat="47.58317" lon="-3.01306">
        <ele>19</ele>
        <time>2021-08-14T13:04:00Z</time>
      </trkpt>
      <trkpt lat="47.58313" lon="-3.01296">
        <ele>25</ele>
        <time>2021-08-14T13:04:02Z</time>
      </trkpt>
      <trkpt lat="47.58307" lon="-3.01288">
        <ele>25</ele>
        <time>2021-08-14T13:04:04Z</time>
      </trkpt>
      <trkpt lat="47.583" lon="-3.01278">
        <ele>11</ele>
        <time>2021-08-14T13:04:07Z</time>
      </trkpt>
      <trkpt lat="47.58295" lon="-3.01272">
        <ele>21</ele>
        <time>2021-08-14T13:04:09Z</time>
      </trkpt>
      <trkpt lat="47.5829" lon="-3.01267">
        <ele>21</ele>
        <time>2021-08-14T13:04:11Z</time>
      </trkpt>
      <trkpt lat="47.58286" lon="-3.01262">
        <ele>21</ele>
        <time>2021-08-14T13:04:13Z</time>
      </trkpt>
      <trkpt lat="47.58279" lon="-3.01257">
        <ele>23</ele>
        <time>2021-08-14T13:04:16Z</time>
      </trkpt>
      <trkpt lat="47.58275" lon="-3.01251">
        <ele>14</ele>
        <time>2021-08-14T13:04:18Z</time>
      </trkpt>
      <trkpt lat="47.58269" lon="-3.01246">
        <ele>14</ele>
        <time>2021-08-14T13:04:21Z</time>
      </trkpt>
      <trkpt lat="47.58265" lon="-3.01242">
        <ele>14</ele>
        <time>2021-08-14T13:04:24Z</time>
      </trkpt>
      <trkpt lat="47.58258" lon="-3.01238">
        <ele>14</ele>
        <time>2021-08-14T13:04:28Z</time>
      </trkpt>
      <trkpt lat="47.58251" lon="-3.01236">
        <ele>6</ele>
        <time>2021-08-14T13:04:31Z</time>
      </trkpt>
      <trkpt lat="47.58247" lon="-3.01233">
        <ele>6</ele>
        <time>2021-08-14T13:04:33Z</time>
      </trkpt>
      <trkpt lat="47.58242" lon="-3.0123">
        <ele>1</ele>
        <time>2021-08-14T13:04:35Z</time>
      </trkpt>
      <trkpt lat="47.58237" lon="-3.01227">
        <ele>1</ele>
        <time>2021-08-14T13:04:37Z</time>
      </trkpt>
      <trkpt lat="47.5823" lon="-3.01222">
        <ele>4</ele>
        <time>2021-08-14T13:04:40Z</time>
      </trkpt>
      <trkpt lat="47.58225" lon="-3.01219">
        <ele>4</ele>
        <time>2021-08-14T13:04:42Z</time>
      </trkpt>
      <trkpt lat="47.58219" lon="-3.01215">
        <ele>4</ele>
        <time>2021-08-14T13:04:44Z</time>
      </trkpt>
      <trkpt lat="47.58208" lon="-3.01211">
        <ele>15</ele>
        <time>2021-08-14T13:04:47Z</time>
      </trkpt>
      <trkpt lat="47.58196" lon="-3.01206">
        <ele>15</ele>
        <time>2021-08-14T13:04:50Z</time>
      </trkpt>
      <trkpt lat="47.58189" lon="-3.01201">
        <ele>20</ele>
        <time>2021-08-14T13:04:52Z</time>
      </trkpt>
      <trkpt lat="47.58179" lon="-3.01197">
        <ele>20</ele>
        <time>2021-08-14T13:04:55Z</time>
      </trkpt>
      <trkpt lat="47.58168" lon="-3.01191">
        <ele>17</ele>
        <time>2021-08-14T13:04:58Z</time>
      </trkpt>
      <trkpt lat="47.58164" lon="-3.01189">
        <ele>17</ele>
        <time>2021-08-14T13:04:59Z</time>
      </trkpt>
      <trkpt lat="47.58156" lon="-3.01185">
        <ele>2</ele>
        <time>2021-08-14T13:05:01Z</time>
      </trkpt>
      <trkpt lat="47.58148" lon="-3.0118">
        <ele>2</ele>
        <time>2021-08-14T13:05:04Z</time>
      </trkpt>
      <trkpt lat="47.58139" lon="-3.01175">
        <ele>11</ele>
        <time>2021-08-14T13:05:07Z</time>
      </trkpt>
      <trkpt lat="47.58134" lon="-3.01172">
        <ele>11</ele>
        <time>2021-08-14T13:05:09Z</time>
      </trkpt>
      <trkpt lat="47.58128" lon="-3.01169">
        <ele>10</ele>
        <time>2021-08-14T13:05:11Z</time>
      </trkpt>
      <trkpt lat="47.58123" lon="-3.01166">
        <ele>10</ele>
        <time>2021-08-14T13:05:13Z</time>
      </trkpt>
      <trkpt lat="47.58118" lon="-3.01164">
        <ele>10</ele>
        <time>2021-08-14T13:05:15Z</time>
      </trkpt>
      <trkpt lat="47.58112" lon="-3.01158">
        <ele>10</ele>
        <time>2021-08-14T13:05:18Z</time>
      </trkpt>
      <trkpt lat="47.58107" lon="-3.01154">
        <ele>6</ele>
        <time>2021-08-14T13:05:21Z</time>
      </trkpt>
      <trkpt lat="47.58102" lon="-3.01153">
        <ele>16</ele>
        <time>2021-08-14T13:05:25Z</time>
      </trkpt>
      <trkpt lat="47.58102" lon="-3.01143">
        <ele>16</ele>
        <time>2021-08-14T13:05:29Z</time>
      </trkpt>
      <trkpt lat="47.58106" lon="-3.01137">
        <ele>8</ele>
        <time>2021-08-14T13:05:32Z</time>
      </trkpt>
      <trkpt lat="47.58108" lon="-3.01128">
        <ele>8</ele>
        <time>2021-08-14T13:05:35Z</time>
      </trkpt>
      <trkpt lat="47.5811" lon="-3.0112">
        <ele>7</ele>
        <time>2021-08-14T13:05:37Z</time>
      </trkpt>
      <trkpt lat="47.58113" lon="-3.01112">
        <ele>7</ele>
        <time>2021-08-14T13:05:39Z</time>
      </trkpt>
      <trkpt lat="47.58117" lon="-3.01097">
        <ele>7</ele>
        <time>2021-08-14T13:05:42Z</time>
      </trkpt>
      <trkpt lat="47.58122" lon="-3.01081">
        <ele>9</ele>
        <time>2021-08-14T13:05:45Z</time>
      </trkpt>
      <trkpt lat="47.58125" lon="-3.01071">
        <ele>9</ele>
        <time>2021-08-14T13:05:47Z</time>
      </trkpt>
      <trkpt lat="47.58128" lon="-3.01062">
        <ele>10</ele>
        <time>2021-08-14T13:05:49Z</time>
      </trkpt>
      <trkpt lat="47.58132" lon="-3.01052">
        <ele>10</ele>
        <time>2021-08-14T13:05:51Z</time>
      </trkpt>
      <trkpt lat="47.58135" lon="-3.01043">
        <ele>21</ele>
        <time>2021-08-14T13:05:53Z</time>
      </trkpt>
      <trkpt lat="47.58138" lon="-3.01033">
        <ele>21</ele>
        <time>2021-08-14T13:05:55Z</time>
      </trkpt>
      <trkpt lat="47.58142" lon="-3.0102">
        <ele>-6</ele>
        <time>2021-08-14T13:05:58Z</time>
      </trkpt>
      <trkpt lat="47.58144" lon="-3.01013">
        <ele>-6</ele>
        <time>2021-08-14T13:06:00Z</time>
      </trkpt>
      <trkpt lat="47.58147" lon="-3.01003">
        <ele>-20</ele>
        <time>2021-08-14T13:06:04Z</time>
      </trkpt>
      <trkpt lat="47.58153" lon="-3.00993">
        <ele>-1</ele>
        <time>2021-08-14T13:06:23Z</time>
      </trkpt>
      <trkpt lat="47.58156" lon="-3.00987">
        <ele>-1</ele>
        <time>2021-08-14T13:06:25Z</time>
      </trkpt>
      <trkpt lat="47.58158" lon="-3.0098">
        <ele>7</ele>
        <time>2021-08-14T13:06:27Z</time>
      </trkpt>
      <trkpt lat="47.58161" lon="-3.00973">
        <ele>7</ele>
        <time>2021-08-14T13:06:29Z</time>
      </trkpt>
      <trkpt lat="47.58163" lon="-3.00966">
        <ele>-12</ele>
        <time>2021-08-14T13:06:31Z</time>
      </trkpt>
      <trkpt lat="47.58165" lon="-3.00959">
        <ele>-12</ele>
        <time>2021-08-14T13:06:33Z</time>
      </trkpt>
      <trkpt lat="47.58169" lon="-3.00948">
        <ele>-12</ele>
        <time>2021-08-14T13:06:36Z</time>
      </trkpt>
      <trkpt lat="47.58171" lon="-3.00941">
        <ele>22</ele>
        <time>2021-08-14T13:06:38Z</time>
      </trkpt>
      <trkpt lat="47.58173" lon="-3.00933">
        <ele>22</ele>
        <time>2021-08-14T13:06:40Z</time>
      </trkpt>
      <trkpt lat="47.58177" lon="-3.00921">
        <ele>9</ele>
        <time>2021-08-14T13:06:43Z</time>
      </trkpt>
      <trkpt lat="47.58179" lon="-3.00912">
        <ele>9</ele>
        <time>2021-08-14T13:06:45Z</time>
      </trkpt>
      <trkpt lat="47.58183" lon="-3.00899">
        <ele>-6</ele>
        <time>2021-08-14T13:06:48Z</time>
      </trkpt>
      <trkpt lat="47.58184" lon="-3.00889">
        <ele>-6</ele>
        <time>2021-08-14T13:06:50Z</time>
      </trkpt>
      <trkpt lat="47.58184" lon="-3.0088">
        <ele>-2</ele>
        <time>2021-08-14T13:06:52Z</time>
      </trkpt>
      <trkpt lat="47.58184" lon="-3.00866">
        <ele>-2</ele>
        <time>2021-08-14T13:06:55Z</time>
      </trkpt>
      <trkpt lat="47.58184" lon="-3.00851">
        <ele>14</ele>
        <time>2021-08-14T13:06:58Z</time>
      </trkpt>
      <trkpt lat="47.58185" lon="-3.00842">
        <ele>14</ele>
        <time>2021-08-14T13:07:00Z</time>
      </trkpt>
      <trkpt lat="47.58187" lon="-3.00834">
        <ele>7</ele>
        <time>2021-08-14T13:07:02Z</time>
      </trkpt>
      <trkpt lat="47.58188" lon="-3.00825">
        <ele>7.1</ele>
        <time>2021-08-14T13:07:04Z</time>
      </trkpt>
      <trkpt lat="47.5819" lon="-3.00817">
        <ele>-8</ele>
        <time>2021-08-14T13:07:06Z</time>
      </trkpt>
      <trkpt lat="47.5819" lon="-3.00808">
        <ele>-8</ele>
        <time>2021-08-14T13:07:08Z</time>
      </trkpt>
      <trkpt lat="47.58191" lon="-3.00795">
        <ele>12</ele>
        <time>2021-08-14T13:07:11Z</time>
      </trkpt>
      <trkpt lat="47.58191" lon="-3.00788">
        <ele>-9</ele>
        <time>2021-08-14T13:07:13Z</time>
      </trkpt>
      <trkpt lat="47.58192" lon="-3.00781">
        <ele>-9</ele>
        <time>2021-08-14T13:07:15Z</time>
      </trkpt>
      <trkpt lat="47.58194" lon="-3.00771">
        <ele>-9</ele>
        <time>2021-08-14T13:07:19Z</time>
      </trkpt>
      <trkpt lat="47.58196" lon="-3.00764">
        <ele>10</ele>
        <time>2021-08-14T13:07:22Z</time>
      </trkpt>
      <trkpt lat="47.58199" lon="-3.00753">
        <ele>10</ele>
        <time>2021-08-14T13:07:26Z</time>
      </trkpt>
      <trkpt lat="47.58201" lon="-3.00746">
        <ele>1</ele>
        <time>2021-08-14T13:07:28Z</time>
      </trkpt>
      <trkpt lat="47.58203" lon="-3.00736">
        <ele>1</ele>
        <time>2021-08-14T13:07:32Z</time>
      </trkpt>
      <trkpt lat="47.58205" lon="-3.00722">
        <ele>-10</ele>
        <time>2021-08-14T13:07:36Z</time>
      </trkpt>
      <trkpt lat="47.58207" lon="-3.0071">
        <ele>-10</ele>
        <time>2021-08-14T13:07:39Z</time>
      </trkpt>
      <trkpt lat="47.58208" lon="-3.00702">
        <ele>-5</ele>
        <time>2021-08-14T13:07:41Z</time>
      </trkpt>
      <trkpt lat="47.58209" lon="-3.00694">
        <ele>-5</ele>
        <time>2021-08-14T13:07:43Z</time>
      </trkpt>
      <trkpt lat="47.58209" lon="-3.00686">
        <ele>8</ele>
        <time>2021-08-14T13:07:45Z</time>
      </trkpt>
      <trkpt lat="47.5821" lon="-3.00678">
        <ele>8</ele>
        <time>2021-08-14T13:07:47Z</time>
      </trkpt>
      <trkpt lat="47.58211" lon="-3.00667">
        <ele>16</ele>
        <time>2021-08-14T13:07:50Z</time>
      </trkpt>
      <trkpt lat="47.58212" lon="-3.00659">
        <ele>16</ele>
        <time>2021-08-14T13:07:52Z</time>
      </trkpt>
      <trkpt lat="47.58213" lon="-3.00647">
        <ele>-1</ele>
        <time>2021-08-14T13:07:55Z</time>
      </trkpt>
      <trkpt lat="47.58215" lon="-3.00639">
        <ele>-1</ele>
        <time>2021-08-14T13:07:57Z</time>
      </trkpt>
      <trkpt lat="47.58217" lon="-3.00629">
        <ele>21</ele>
        <time>2021-08-14T13:08:00Z</time>
      </trkpt>
      <trkpt lat="47.58219" lon="-3.00616">
        <ele>21</ele>
        <time>2021-08-14T13:08:04Z</time>
      </trkpt>
      <trkpt lat="47.58221" lon="-3.00609">
        <ele>8</ele>
        <time>2021-08-14T13:08:06Z</time>
      </trkpt>
      <trkpt lat="47.58223" lon="-3.00602">
        <ele>8</ele>
        <time>2021-08-14T13:08:08Z</time>
      </trkpt>
      <trkpt lat="47.58226" lon="-3.00596">
        <ele>8.8</ele>
        <time>2021-08-14T13:08:10Z</time>
      </trkpt>
      <trkpt lat="47.58232" lon="-3.00587">
        <ele>8.9</ele>
        <time>2021-08-14T13:08:13Z</time>
      </trkpt>
      <trkpt lat="47.58236" lon="-3.00587">
        <ele>8.9</ele>
        <time>2021-08-14T13:08:15Z</time>
      </trkpt>
      <trkpt lat="47.58245" lon="-3.00588">
        <ele>8.9</ele>
        <time>2021-08-14T13:08:18Z</time>
      </trkpt>
      <trkpt lat="47.58253" lon="-3.00592">
        <ele>2</ele>
        <time>2021-08-14T13:08:21Z</time>
      </trkpt>
      <trkpt lat="47.58259" lon="-3.00595">
        <ele>2</ele>
        <time>2021-08-14T13:08:23Z</time>
      </trkpt>
      <trkpt lat="47.58265" lon="-3.00597">
        <ele>7</ele>
        <time>2021-08-14T13:08:25Z</time>
      </trkpt>
      <trkpt lat="47.58273" lon="-3.006">
        <ele>7</ele>
        <time>2021-08-14T13:08:28Z</time>
      </trkpt>
      <trkpt lat="47.58279" lon="-3.00601">
        <ele>14</ele>
        <time>2021-08-14T13:08:30Z</time>
      </trkpt>
      <trkpt lat="47.58284" lon="-3.006">
        <ele>14</ele>
        <time>2021-08-14T13:08:32Z</time>
      </trkpt>
      <trkpt lat="47.58289" lon="-3.00599">
        <ele>16</ele>
        <time>2021-08-14T13:08:34Z</time>
      </trkpt>
      <trkpt lat="47.58298" lon="-3.006">
        <ele>16</ele>
        <time>2021-08-14T13:08:37Z</time>
      </trkpt>
      <trkpt lat="47.58307" lon="-3.00595">
        <ele>1</ele>
        <time>2021-08-14T13:08:40Z</time>
      </trkpt>
      <trkpt lat="47.58316" lon="-3.00591">
        <ele>1</ele>
        <time>2021-08-14T13:08:43Z</time>
      </trkpt>
      <trkpt lat="47.58323" lon="-3.00586">
        <ele>4</ele>
        <time>2021-08-14T13:08:46Z</time>
      </trkpt>
      <trkpt lat="47.58326" lon="-3.00582">
        <ele>4</ele>
        <time>2021-08-14T13:08:48Z</time>
      </trkpt>
      <trkpt lat="47.58331" lon="-3.00578">
        <ele>4</ele>
        <time>2021-08-14T13:08:50Z</time>
      </trkpt>
      <trkpt lat="47.58337" lon="-3.00571">
        <ele>4</ele>
        <time>2021-08-14T13:08:53Z</time>
      </trkpt>
      <trkpt lat="47.58342" lon="-3.00568">
        <ele>10</ele>
        <time>2021-08-14T13:08:55Z</time>
      </trkpt>
      <trkpt lat="47.5835" lon="-3.00563">
        <ele>10</ele>
        <time>2021-08-14T13:08:58Z</time>
      </trkpt>
      <trkpt lat="47.58355" lon="-3.00559">
        <ele>6</ele>
        <time>2021-08-14T13:09:00Z</time>
      </trkpt>
      <trkpt lat="47.58362" lon="-3.00552">
        <ele>6</ele>
        <time>2021-08-14T13:09:03Z</time>
      </trkpt>
      <trkpt lat="47.58368" lon="-3.00542">
        <ele>8</ele>
        <time>2021-08-14T13:09:06Z</time>
      </trkpt>
      <trkpt lat="47.58371" lon="-3.00534">
        <ele>8</ele>
        <time>2021-08-14T13:09:08Z</time>
      </trkpt>
      <trkpt lat="47.58373" lon="-3.00526">
        <ele>19</ele>
        <time>2021-08-14T13:09:10Z</time>
      </trkpt>
      <trkpt lat="47.58373" lon="-3.00518">
        <ele>19</ele>
        <time>2021-08-14T13:09:12Z</time>
      </trkpt>
      <trkpt lat="47.58375" lon="-3.0051">
        <ele>-8</ele>
        <time>2021-08-14T13:09:14Z</time>
      </trkpt>
      <trkpt lat="47.58376" lon="-3.00503">
        <ele>-8</ele>
        <time>2021-08-14T13:09:16Z</time>
      </trkpt>
      <trkpt lat="47.58375" lon="-3.00491">
        <ele>-10</ele>
        <time>2021-08-14T13:09:19Z</time>
      </trkpt>
      <trkpt lat="47.58375" lon="-3.00483">
        <ele>-10</ele>
        <time>2021-08-14T13:09:21Z</time>
      </trkpt>
      <trkpt lat="47.58375" lon="-3.00471">
        <ele>17</ele>
        <time>2021-08-14T13:09:24Z</time>
      </trkpt>
      <trkpt lat="47.58377" lon="-3.00464">
        <ele>17</ele>
        <time>2021-08-14T13:10:23Z</time>
      </trkpt>
      <trkpt lat="47.58378" lon="-3.00455">
        <ele>10</ele>
        <time>2021-08-14T13:10:27Z</time>
      </trkpt>
      <trkpt lat="47.58385" lon="-3.00455">
        <ele>10</ele>
        <time>2021-08-14T13:10:30Z</time>
      </trkpt>
      <trkpt lat="47.5839" lon="-3.00457">
        <ele>-2</ele>
        <time>2021-08-14T13:10:32Z</time>
      </trkpt>
      <trkpt lat="47.58394" lon="-3.00458">
        <ele>-2</ele>
        <time>2021-08-14T13:10:34Z</time>
      </trkpt>
      <trkpt lat="47.58399" lon="-3.00459">
        <ele>10</ele>
        <time>2021-08-14T13:10:36Z</time>
      </trkpt>
      <trkpt lat="47.58404" lon="-3.00461">
        <ele>10</ele>
        <time>2021-08-14T13:10:38Z</time>
      </trkpt>
      <trkpt lat="47.58408" lon="-3.0046">
        <ele>19</ele>
        <time>2021-08-14T13:10:40Z</time>
      </trkpt>
      <trkpt lat="47.58413" lon="-3.00461">
        <ele>19</ele>
        <time>2021-08-14T13:10:42Z</time>
      </trkpt>
      <trkpt lat="47.5842" lon="-3.00462">
        <ele>20</ele>
        <time>2021-08-14T13:10:45Z</time>
      </trkpt>
      <trkpt lat="47.58425" lon="-3.00462">
        <ele>20</ele>
        <time>2021-08-14T13:10:47Z</time>
      </trkpt>
      <trkpt lat="47.58432" lon="-3.00463">
        <ele>15</ele>
        <time>2021-08-14T13:10:50Z</time>
      </trkpt>
      <trkpt lat="47.58439" lon="-3.00459">
        <ele>15</ele>
        <time>2021-08-14T13:10:53Z</time>
      </trkpt>
      <trkpt lat="47.58443" lon="-3.00451">
        <ele>-3</ele>
        <time>2021-08-14T13:10:55Z</time>
      </trkpt>
      <trkpt lat="47.58448" lon="-3.00438">
        <ele>-3</ele>
        <time>2021-08-14T13:10:58Z</time>
      </trkpt>
      <trkpt lat="47.58452" lon="-3.00424">
        <ele>12</ele>
        <time>2021-08-14T13:11:01Z</time>
      </trkpt>
      <trkpt lat="47.58454" lon="-3.00415">
        <ele>12</ele>
        <time>2021-08-14T13:11:03Z</time>
      </trkpt>
      <trkpt lat="47.58456" lon="-3.00403">
        <ele>1</ele>
        <time>2021-08-14T13:11:06Z</time>
      </trkpt>
      <trkpt lat="47.58459" lon="-3.00393">
        <ele>1</ele>
        <time>2021-08-14T13:11:09Z</time>
      </trkpt>
      <trkpt lat="47.58463" lon="-3.00387">
        <ele>25</ele>
        <time>2021-08-14T13:11:12Z</time>
      </trkpt>
      <trkpt lat="47.58466" lon="-3.0038">
        <ele>22</ele>
        <time>2021-08-14T13:11:15Z</time>
      </trkpt>
      <trkpt lat="47.58467" lon="-3.00387">
        <ele>22</ele>
        <time>2021-08-14T13:11:19Z</time>
      </trkpt>
      <trkpt lat="47.58462" lon="-3.00389">
        <ele>10</ele>
        <time>2021-08-14T13:11:22Z</time>
      </trkpt>
      <trkpt lat="47.5846" lon="-3.00396">
        <ele>10</ele>
        <time>2021-08-14T13:11:25Z</time>
      </trkpt>
      <trkpt lat="47.58459" lon="-3.00405">
        <ele>32</ele>
        <time>2021-08-14T13:11:28Z</time>
      </trkpt>
      <trkpt lat="47.58461" lon="-3.00415">
        <ele>32</ele>
        <time>2021-08-14T13:11:32Z</time>
      </trkpt>
      <trkpt lat="47.58466" lon="-3.00421">
        <ele>20</ele>
        <time>2021-08-14T13:11:49Z</time>
      </trkpt>
      <trkpt lat="47.58472" lon="-3.00424">
        <ele>20</ele>
        <time>2021-08-14T13:11:52Z</time>
      </trkpt>
      <trkpt lat="47.58476" lon="-3.00424">
        <ele>12</ele>
        <time>2021-08-14T13:11:54Z</time>
      </trkpt>
      <trkpt lat="47.58484" lon="-3.00419">
        <ele>12</ele>
        <time>2021-08-14T13:11:57Z</time>
      </trkpt>
      <trkpt lat="47.5849" lon="-3.00416">
        <ele>15</ele>
        <time>2021-08-14T13:11:59Z</time>
      </trkpt>
      <trkpt lat="47.58494" lon="-3.00413">
        <ele>15</ele>
        <time>2021-08-14T13:12:01Z</time>
      </trkpt>
      <trkpt lat="47.585" lon="-3.00409">
        <ele>-8</ele>
        <time>2021-08-14T13:12:05Z</time>
      </trkpt>
      <trkpt lat="47.58506" lon="-3.00406">
        <ele>-8</ele>
        <time>2021-08-14T13:12:09Z</time>
      </trkpt>
      <trkpt lat="47.58513" lon="-3.00405">
        <ele>-6</ele>
        <time>2021-08-14T13:12:13Z</time>
      </trkpt>
      <trkpt lat="47.58519" lon="-3.00406">
        <ele>-6</ele>
        <time>2021-08-14T13:12:15Z</time>
      </trkpt>
      <trkpt lat="47.58525" lon="-3.00411">
        <ele>22</ele>
        <time>2021-08-14T13:12:18Z</time>
      </trkpt>
      <trkpt lat="47.5853" lon="-3.00417">
        <ele>22</ele>
        <time>2021-08-14T13:12:21Z</time>
      </trkpt>
      <trkpt lat="47.58532" lon="-3.00425">
        <ele>18</ele>
        <time>2021-08-14T13:12:24Z</time>
      </trkpt>
      <trkpt lat="47.58533" lon="-3.00436">
        <ele>18</ele>
        <time>2021-08-14T13:12:27Z</time>
      </trkpt>
      <trkpt lat="47.58533" lon="-3.00444">
        <ele>7</ele>
        <time>2021-08-14T13:12:29Z</time>
      </trkpt>
      <trkpt lat="47.58532" lon="-3.00454">
        <ele>14</ele>
        <time>2021-08-14T13:12:32Z</time>
      </trkpt>
      <trkpt lat="47.58534" lon="-3.00462">
        <ele>14</ele>
        <time>2021-08-14T13:12:36Z</time>
      </trkpt>
      <trkpt lat="47.58538" lon="-3.00463">
        <ele>14</ele>
        <time>2021-08-14T13:12:39Z</time>
      </trkpt>
      <trkpt lat="47.58543" lon="-3.00463">
        <ele>23</ele>
        <time>2021-08-14T13:12:41Z</time>
      </trkpt>
      <trkpt lat="47.5855" lon="-3.00465">
        <ele>23</ele>
        <time>2021-08-14T13:12:44Z</time>
      </trkpt>
      <trkpt lat="47.58557" lon="-3.00465">
        <ele>11</ele>
        <time>2021-08-14T13:12:47Z</time>
      </trkpt>
      <trkpt lat="47.58565" lon="-3.00466">
        <ele>11</ele>
        <time>2021-08-14T13:12:51Z</time>
      </trkpt>
      <trkpt lat="47.58573" lon="-3.00467">
        <ele>13</ele>
        <time>2021-08-14T13:12:55Z</time>
      </trkpt>
      <trkpt lat="47.5858" lon="-3.00465">
        <ele>13</ele>
        <time>2021-08-14T13:13:00Z</time>
      </trkpt>
      <trkpt lat="47.58583" lon="-3.00458">
        <ele>11</ele>
        <time>2021-08-14T13:13:03Z</time>
      </trkpt>
      <trkpt lat="47.58584" lon="-3.00446">
        <ele>11</ele>
        <time>2021-08-14T13:13:06Z</time>
      </trkpt>
      <trkpt lat="47.58583" lon="-3.00438">
        <ele>19</ele>
        <time>2021-08-14T13:13:08Z</time>
      </trkpt>
      <trkpt lat="47.58583" lon="-3.00426">
        <ele>19</ele>
        <time>2021-08-14T13:13:11Z</time>
      </trkpt>
      <trkpt lat="47.58583" lon="-3.00413">
        <ele>20</ele>
        <time>2021-08-14T13:13:14Z</time>
      </trkpt>
      <trkpt lat="47.58583" lon="-3.00405">
        <ele>20</ele>
        <time>2021-08-14T13:13:16Z</time>
      </trkpt>
      <trkpt lat="47.58583" lon="-3.00395">
        <ele>21</ele>
        <time>2021-08-14T13:13:18Z</time>
      </trkpt>
      <trkpt lat="47.58583" lon="-3.00386">
        <ele>21</ele>
        <time>2021-08-14T13:13:20Z</time>
      </trkpt>
      <trkpt lat="47.58584" lon="-3.00376">
        <ele>21</ele>
        <time>2021-08-14T13:13:22Z</time>
      </trkpt>
      <trkpt lat="47.58585" lon="-3.00367">
        <ele>21</ele>
        <time>2021-08-14T13:13:27Z</time>
      </trkpt>
      <trkpt lat="47.58586" lon="-3.00354">
        <ele>13</ele>
        <time>2021-08-14T13:13:30Z</time>
      </trkpt>
      <trkpt lat="47.58586" lon="-3.00345">
        <ele>13</ele>
        <time>2021-08-14T13:13:33Z</time>
      </trkpt>
      <trkpt lat="47.58585" lon="-3.00335">
        <ele>4</ele>
        <time>2021-08-14T13:13:36Z</time>
      </trkpt>
      <trkpt lat="47.58585" lon="-3.00325">
        <ele>4</ele>
        <time>2021-08-14T13:13:38Z</time>
      </trkpt>
      <trkpt lat="47.58585" lon="-3.00314">
        <ele>13</ele>
        <time>2021-08-14T13:13:40Z</time>
      </trkpt>
      <trkpt lat="47.58585" lon="-3.00301">
        <ele>13</ele>
        <time>2021-08-14T13:13:42Z</time>
      </trkpt>
      <trkpt lat="47.58586" lon="-3.00287">
        <ele>13</ele>
        <time>2021-08-14T13:13:44Z</time>
      </trkpt>
      <trkpt lat="47.58586" lon="-3.0028">
        <ele>13</ele>
        <time>2021-08-14T13:13:45Z</time>
      </trkpt>
      <trkpt lat="47.58586" lon="-3.00267">
        <ele>-3</ele>
        <time>2021-08-14T13:13:47Z</time>
      </trkpt>
      <trkpt lat="47.58586" lon="-3.00255">
        <ele>-3</ele>
        <time>2021-08-14T13:13:49Z</time>
      </trkpt>
      <trkpt lat="47.58587" lon="-3.00242">
        <ele>2</ele>
        <time>2021-08-14T13:13:51Z</time>
      </trkpt>
      <trkpt lat="47.58587" lon="-3.00231">
        <ele>2</ele>
        <time>2021-08-14T13:13:53Z</time>
      </trkpt>
      <trkpt lat="47.58588" lon="-3.00219">
        <ele>19</ele>
        <time>2021-08-14T13:13:55Z</time>
      </trkpt>
      <trkpt lat="47.5859" lon="-3.0021">
        <ele>19</ele>
        <time>2021-08-14T13:13:57Z</time>
      </trkpt>
      <trkpt lat="47.58596" lon="-3.00207">
        <ele>19</ele>
        <time>2021-08-14T13:13:59Z</time>
      </trkpt>
      <trkpt lat="47.58608" lon="-3.00206">
        <ele>-1</ele>
        <time>2021-08-14T13:14:02Z</time>
      </trkpt>
      <trkpt lat="47.58619" lon="-3.002">
        <ele>-1</ele>
        <time>2021-08-14T13:14:05Z</time>
      </trkpt>
      <trkpt lat="47.58631" lon="-3.00194">
        <ele>13</ele>
        <time>2021-08-14T13:14:08Z</time>
      </trkpt>
      <trkpt lat="47.58638" lon="-3.00189">
        <ele>13</ele>
        <time>2021-08-14T13:14:10Z</time>
      </trkpt>
      <trkpt lat="47.58649" lon="-3.00181">
        <ele>30</ele>
        <time>2021-08-14T13:14:13Z</time>
      </trkpt>
      <trkpt lat="47.58657" lon="-3.00177">
        <ele>38</ele>
        <time>2021-08-14T13:14:15Z</time>
      </trkpt>
      <trkpt lat="47.58666" lon="-3.00175">
        <ele>38</ele>
        <time>2021-08-14T13:14:17Z</time>
      </trkpt>
      <trkpt lat="47.58673" lon="-3.00171">
        <ele>38</ele>
        <time>2021-08-14T13:14:19Z</time>
      </trkpt>
      <trkpt lat="47.58683" lon="-3.00165">
        <ele>7</ele>
        <time>2021-08-14T13:14:22Z</time>
      </trkpt>
      <trkpt lat="47.5869" lon="-3.00162">
        <ele>-6</ele>
        <time>2021-08-14T13:14:24Z</time>
      </trkpt>
      <trkpt lat="47.58698" lon="-3.00158">
        <ele>-6</ele>
        <time>2021-08-14T13:14:26Z</time>
      </trkpt>
      <trkpt lat="47.58705" lon="-3.00155">
        <ele>-6</ele>
        <time>2021-08-14T13:14:28Z</time>
      </trkpt>
      <trkpt lat="47.58714" lon="-3.00151">
        <ele>2</ele>
        <time>2021-08-14T13:14:31Z</time>
      </trkpt>
      <trkpt lat="47.5872" lon="-3.00147">
        <ele>2</ele>
        <time>2021-08-14T13:14:33Z</time>
      </trkpt>
      <trkpt lat="47.58729" lon="-3.00142">
        <ele>18</ele>
        <time>2021-08-14T13:14:36Z</time>
      </trkpt>
      <trkpt lat="47.58734" lon="-3.00139">
        <ele>6</ele>
        <time>2021-08-14T13:14:38Z</time>
      </trkpt>
      <trkpt lat="47.5874" lon="-3.00136">
        <ele>6</ele>
        <time>2021-08-14T13:14:40Z</time>
      </trkpt>
      <trkpt lat="47.58746" lon="-3.00134">
        <ele>22</ele>
        <time>2021-08-14T13:14:42Z</time>
      </trkpt>
      <trkpt lat="47.5875" lon="-3.00132">
        <ele>22</ele>
        <time>2021-08-14T13:14:44Z</time>
      </trkpt>
      <trkpt lat="47.58758" lon="-3.00128">
        <ele>16</ele>
        <time>2021-08-14T13:14:47Z</time>
      </trkpt>
      <trkpt lat="47.58764" lon="-3.00125">
        <ele>16</ele>
        <time>2021-08-14T13:14:49Z</time>
      </trkpt>
      <trkpt lat="47.58768" lon="-3.00123">
        <ele>16</ele>
        <time>2021-08-14T13:14:51Z</time>
      </trkpt>
      <trkpt lat="47.58776" lon="-3.0012">
        <ele>4</ele>
        <time>2021-08-14T13:14:54Z</time>
      </trkpt>
      <trkpt lat="47.58781" lon="-3.00118">
        <ele>16</ele>
        <time>2021-08-14T13:14:56Z</time>
      </trkpt>
      <trkpt lat="47.58786" lon="-3.00116">
        <ele>16</ele>
        <time>2021-08-14T13:14:58Z</time>
      </trkpt>
      <trkpt lat="47.5879" lon="-3.00114">
        <ele>9</ele>
        <time>2021-08-14T13:15:00Z</time>
      </trkpt>
      <trkpt lat="47.58795" lon="-3.00112">
        <ele>9</ele>
        <time>2021-08-14T13:15:02Z</time>
      </trkpt>
      <trkpt lat="47.58801" lon="-3.00109">
        <ele>13</ele>
        <time>2021-08-14T13:15:05Z</time>
      </trkpt>
      <trkpt lat="47.58807" lon="-3.00107">
        <ele>13</ele>
        <time>2021-08-14T13:15:08Z</time>
      </trkpt>
      <trkpt lat="47.58813" lon="-3.00105">
        <ele>13</ele>
        <time>2021-08-14T13:15:11Z</time>
      </trkpt>
      <trkpt lat="47.58819" lon="-3.00103">
        <ele>5</ele>
        <time>2021-08-14T13:15:14Z</time>
      </trkpt>
      <trkpt lat="47.58825" lon="-3.00102">
        <ele>5</ele>
        <time>2021-08-14T13:15:17Z</time>
      </trkpt>
      <trkpt lat="47.58832" lon="-3.00099">
        <ele>24</ele>
        <time>2021-08-14T13:15:20Z</time>
      </trkpt>
      <trkpt lat="47.58836" lon="-3.00097">
        <ele>24</ele>
        <time>2021-08-14T13:15:22Z</time>
      </trkpt>
      <trkpt lat="47.58843" lon="-3.00095">
        <ele>15</ele>
        <time>2021-08-14T13:15:25Z</time>
      </trkpt>
      <trkpt lat="47.58848" lon="-3.00093">
        <ele>15</ele>
        <time>2021-08-14T13:15:27Z</time>
      </trkpt>
      <trkpt lat="47.58856" lon="-3.0009">
        <ele>12</ele>
        <time>2021-08-14T13:15:30Z</time>
      </trkpt>
      <trkpt lat="47.58862" lon="-3.00087">
        <ele>13</ele>
        <time>2021-08-14T13:15:33Z</time>
      </trkpt>
      <trkpt lat="47.58867" lon="-3.00085">
        <ele>13</ele>
        <time>2021-08-14T13:15:35Z</time>
      </trkpt>
      <trkpt lat="47.58875" lon="-3.00082">
        <ele>13</ele>
        <time>2021-08-14T13:15:38Z</time>
      </trkpt>
      <trkpt lat="47.58881" lon="-3.00079">
        <ele>11</ele>
        <time>2021-08-14T13:15:40Z</time>
      </trkpt>
      <trkpt lat="47.5889" lon="-3.00075">
        <ele>11</ele>
        <time>2021-08-14T13:15:43Z</time>
      </trkpt>
      <trkpt lat="47.58898" lon="-3.00072">
        <ele>14.8</ele>
        <time>2021-08-14T13:15:45Z</time>
      </trkpt>
      <trkpt lat="47.58905" lon="-3.00069">
        <ele>14.6</ele>
        <time>2021-08-14T13:15:47Z</time>
      </trkpt>
      <trkpt lat="47.58911" lon="-3.00066">
        <ele>22</ele>
        <time>2021-08-14T13:15:49Z</time>
      </trkpt>
      <trkpt lat="47.5892" lon="-3.00062">
        <ele>22</ele>
        <time>2021-08-14T13:15:51Z</time>
      </trkpt>
      <trkpt lat="47.5893" lon="-3.00059">
        <ele>-7</ele>
        <time>2021-08-14T13:15:53Z</time>
      </trkpt>
      <trkpt lat="47.58939" lon="-3.00055">
        <ele>-7</ele>
        <time>2021-08-14T13:15:55Z</time>
      </trkpt>
      <trkpt lat="47.58945" lon="-3.0005">
        <ele>39</ele>
        <time>2021-08-14T13:15:57Z</time>
      </trkpt>
      <trkpt lat="47.58949" lon="-3.00045">
        <ele>39</ele>
        <time>2021-08-14T13:15:59Z</time>
      </trkpt>
      <trkpt lat="47.58953" lon="-3.00034">
        <ele>3</ele>
        <time>2021-08-14T13:16:02Z</time>
      </trkpt>
      <trkpt lat="47.58959" lon="-3.00034">
        <ele>3</ele>
        <time>2021-08-14T13:16:04Z</time>
      </trkpt>
      <trkpt lat="47.58965" lon="-3.00038">
        <ele>3</ele>
        <time>2021-08-14T13:16:07Z</time>
      </trkpt>
      <trkpt lat="47.58974" lon="-3.00038">
        <ele>3</ele>
        <time>2021-08-14T13:16:10Z</time>
      </trkpt>
      <trkpt lat="47.58987" lon="-3.00038">
        <ele>7</ele>
        <time>2021-08-14T13:16:13Z</time>
      </trkpt>
      <trkpt lat="47.58995" lon="-3.00037">
        <ele>7</ele>
        <time>2021-08-14T13:16:15Z</time>
      </trkpt>
      <trkpt lat="47.59008" lon="-3.00033">
        <ele>6</ele>
        <time>2021-08-14T13:16:18Z</time>
      </trkpt>
      <trkpt lat="47.59015" lon="-3.0003">
        <ele>6</ele>
        <time>2021-08-14T13:16:20Z</time>
      </trkpt>
      <trkpt lat="47.59024" lon="-3.00028">
        <ele>6</ele>
        <time>2021-08-14T13:16:22Z</time>
      </trkpt>
      <trkpt lat="47.59032" lon="-3.00024">
        <ele>6</ele>
        <time>2021-08-14T13:16:24Z</time>
      </trkpt>
      <trkpt lat="47.59039" lon="-3.00021">
        <ele>20</ele>
        <time>2021-08-14T13:16:26Z</time>
      </trkpt>
      <trkpt lat="47.59046" lon="-3.00017">
        <ele>20</ele>
        <time>2021-08-14T13:16:28Z</time>
      </trkpt>
      <trkpt lat="47.59053" lon="-3.00014">
        <ele>18</ele>
        <time>2021-08-14T13:16:30Z</time>
      </trkpt>
      <trkpt lat="47.59062" lon="-3.00011">
        <ele>18</ele>
        <time>2021-08-14T13:16:32Z</time>
      </trkpt>
      <trkpt lat="47.59072" lon="-3.00007">
        <ele>10</ele>
        <time>2021-08-14T13:16:34Z</time>
      </trkpt>
      <trkpt lat="47.59082" lon="-3.00004">
        <ele>10</ele>
        <time>2021-08-14T13:16:36Z</time>
      </trkpt>
      <trkpt lat="47.59093" lon="-3.00001">
        <ele>7</ele>
        <time>2021-08-14T13:16:38Z</time>
      </trkpt>
      <trkpt lat="47.59098" lon="-2.99999">
        <ele>7</ele>
        <time>2021-08-14T13:16:39Z</time>
      </trkpt>
      <trkpt lat="47.59103" lon="-2.99997">
        <ele>7</ele>
        <time>2021-08-14T13:16:40Z</time>
      </trkpt>
      <trkpt lat="47.59111" lon="-2.99995">
        <ele>7</ele>
        <time>2021-08-14T13:16:42Z</time>
      </trkpt>
      <trkpt lat="47.59117" lon="-2.99992">
        <ele>11</ele>
        <time>2021-08-14T13:16:44Z</time>
      </trkpt>
      <trkpt lat="47.59123" lon="-2.99986">
        <ele>11</ele>
        <time>2021-08-14T13:16:46Z</time>
      </trkpt>
      <trkpt lat="47.59127" lon="-2.99971">
        <ele>11</ele>
        <time>2021-08-14T13:16:49Z</time>
      </trkpt>
      <trkpt lat="47.59126" lon="-2.99959">
        <ele>11</ele>
        <time>2021-08-14T13:16:51Z</time>
      </trkpt>
      <trkpt lat="47.59122" lon="-2.99948">
        <ele>5</ele>
        <time>2021-08-14T13:16:53Z</time>
      </trkpt>
      <trkpt lat="47.59117" lon="-2.99938">
        <ele>5</ele>
        <time>2021-08-14T13:16:55Z</time>
      </trkpt>
      <trkpt lat="47.59113" lon="-2.99929">
        <ele>6</ele>
        <time>2021-08-14T13:16:57Z</time>
      </trkpt>
      <trkpt lat="47.59109" lon="-2.99915">
        <ele>6</ele>
        <time>2021-08-14T13:17:00Z</time>
      </trkpt>
      <trkpt lat="47.59106" lon="-2.99903">
        <ele>5</ele>
        <time>2021-08-14T13:17:03Z</time>
      </trkpt>
      <trkpt lat="47.59104" lon="-2.99894">
        <ele>5</ele>
        <time>2021-08-14T13:17:06Z</time>
      </trkpt>
      <trkpt lat="47.59102" lon="-2.99887">
        <ele>13</ele>
        <time>2021-08-14T13:17:09Z</time>
      </trkpt>
      <trkpt lat="47.591" lon="-2.99878">
        <ele>13</ele>
        <time>2021-08-14T13:17:12Z</time>
      </trkpt>
      <trkpt lat="47.59099" lon="-2.99868">
        <ele>7</ele>
        <time>2021-08-14T13:17:15Z</time>
      </trkpt>
      <trkpt lat="47.59098" lon="-2.9986">
        <ele>7</ele>
        <time>2021-08-14T13:17:17Z</time>
      </trkpt>
      <trkpt lat="47.59098" lon="-2.99851">
        <ele>17</ele>
        <time>2021-08-14T13:17:20Z</time>
      </trkpt>
      <trkpt lat="47.59099" lon="-2.99845">
        <ele>17</ele>
        <time>2021-08-14T13:17:23Z</time>
      </trkpt>
      <trkpt lat="47.591" lon="-2.99833">
        <ele>20</ele>
        <time>2021-08-14T13:17:27Z</time>
      </trkpt>
      <trkpt lat="47.591" lon="-2.99821">
        <ele>20</ele>
        <time>2021-08-14T13:17:31Z</time>
      </trkpt>
      <trkpt lat="47.591" lon="-2.99814">
        <ele>15</ele>
        <time>2021-08-14T13:17:33Z</time>
      </trkpt>
      <trkpt lat="47.59099" lon="-2.99807">
        <ele>15</ele>
        <time>2021-08-14T13:17:35Z</time>
      </trkpt>
      <trkpt lat="47.59099" lon="-2.99801">
        <ele>9</ele>
        <time>2021-08-14T13:17:37Z</time>
      </trkpt>
      <trkpt lat="47.59098" lon="-2.9979">
        <ele>9</ele>
        <time>2021-08-14T13:17:40Z</time>
      </trkpt>
      <trkpt lat="47.59098" lon="-2.99782">
        <ele>-1</ele>
        <time>2021-08-14T13:17:42Z</time>
      </trkpt>
      <trkpt lat="47.59099" lon="-2.99774">
        <ele>-1</ele>
        <time>2021-08-14T13:17:44Z</time>
      </trkpt>
      <trkpt lat="47.59099" lon="-2.99766">
        <ele>-1</ele>
        <time>2021-08-14T13:17:46Z</time>
      </trkpt>
      <trkpt lat="47.591" lon="-2.99759">
        <ele>-1</ele>
        <time>2021-08-14T13:17:48Z</time>
      </trkpt>
      <trkpt lat="47.591" lon="-2.99747">
        <ele>22</ele>
        <time>2021-08-14T13:17:51Z</time>
      </trkpt>
      <trkpt lat="47.59101" lon="-2.99735">
        <ele>22</ele>
        <time>2021-08-14T13:17:54Z</time>
      </trkpt>
      <trkpt lat="47.59103" lon="-2.99722">
        <ele>8</ele>
        <time>2021-08-14T13:17:57Z</time>
      </trkpt>
      <trkpt lat="47.59102" lon="-2.99712">
        <ele>8</ele>
        <time>2021-08-14T13:17:59Z</time>
      </trkpt>
      <trkpt lat="47.59102" lon="-2.99701">
        <ele>-8</ele>
        <time>2021-08-14T13:18:01Z</time>
      </trkpt>
      <trkpt lat="47.59103" lon="-2.99688">
        <ele>-8</ele>
        <time>2021-08-14T13:18:03Z</time>
      </trkpt>
      <trkpt lat="47.59104" lon="-2.99673">
        <ele>13</ele>
        <time>2021-08-14T13:18:05Z</time>
      </trkpt>
      <trkpt lat="47.59105" lon="-2.99659">
        <ele>13</ele>
        <time>2021-08-14T13:18:07Z</time>
      </trkpt>
      <trkpt lat="47.59105" lon="-2.99651">
        <ele>7</ele>
        <time>2021-08-14T13:18:08Z</time>
      </trkpt>
      <trkpt lat="47.59105" lon="-2.99643">
        <ele>7</ele>
        <time>2021-08-14T13:18:09Z</time>
      </trkpt>
      <trkpt lat="47.59106" lon="-2.99627">
        <ele>-11</ele>
        <time>2021-08-14T13:18:11Z</time>
      </trkpt>
      <trkpt lat="47.59106" lon="-2.9962">
        <ele>-11</ele>
        <time>2021-08-14T13:18:12Z</time>
      </trkpt>
      <trkpt lat="47.59108" lon="-2.99604">
        <ele>-11</ele>
        <time>2021-08-14T13:18:14Z</time>
      </trkpt>
      <trkpt lat="47.59109" lon="-2.99589">
        <ele>-11</ele>
        <time>2021-08-14T13:18:16Z</time>
      </trkpt>
      <trkpt lat="47.5911" lon="-2.99575">
        <ele>-13</ele>
        <time>2021-08-14T13:18:18Z</time>
      </trkpt>
      <trkpt lat="47.5911" lon="-2.99567">
        <ele>-13</ele>
        <time>2021-08-14T13:18:19Z</time>
      </trkpt>
      <trkpt lat="47.5911" lon="-2.9956">
        <ele>14</ele>
        <time>2021-08-14T13:18:20Z</time>
      </trkpt>
      <trkpt lat="47.5911" lon="-2.99552">
        <ele>14</ele>
        <time>2021-08-14T13:18:21Z</time>
      </trkpt>
      <trkpt lat="47.5911" lon="-2.99539">
        <ele>10</ele>
        <time>2021-08-14T13:18:23Z</time>
      </trkpt>
      <trkpt lat="47.59111" lon="-2.99526">
        <ele>10</ele>
        <time>2021-08-14T13:18:25Z</time>
      </trkpt>
      <trkpt lat="47.59112" lon="-2.99506">
        <ele>25</ele>
        <time>2021-08-14T13:18:28Z</time>
      </trkpt>
      <trkpt lat="47.59111" lon="-2.99499">
        <ele>25</ele>
        <time>2021-08-14T13:18:29Z</time>
      </trkpt>
      <trkpt lat="47.5911" lon="-2.99485">
        <ele>2</ele>
        <time>2021-08-14T13:18:31Z</time>
      </trkpt>
      <trkpt lat="47.59109" lon="-2.99473">
        <ele>2</ele>
        <time>2021-08-14T13:18:33Z</time>
      </trkpt>
      <trkpt lat="47.59107" lon="-2.9946">
        <ele>13</ele>
        <time>2021-08-14T13:18:35Z</time>
      </trkpt>
      <trkpt lat="47.59103" lon="-2.99444">
        <ele>13</ele>
        <time>2021-08-14T13:18:38Z</time>
      </trkpt>
      <trkpt lat="47.59099" lon="-2.99431">
        <ele>15</ele>
        <time>2021-08-14T13:18:41Z</time>
      </trkpt>
      <trkpt lat="47.59096" lon="-2.9942">
        <ele>15</ele>
        <time>2021-08-14T13:18:44Z</time>
      </trkpt>
      <trkpt lat="47.5909" lon="-2.99408">
        <ele>7</ele>
        <time>2021-08-14T13:18:47Z</time>
      </trkpt>
      <trkpt lat="47.59086" lon="-2.99396">
        <ele>7</ele>
        <time>2021-08-14T13:18:50Z</time>
      </trkpt>
      <trkpt lat="47.59083" lon="-2.99386">
        <ele>7</ele>
        <time>2021-08-14T13:18:53Z</time>
      </trkpt>
      <trkpt lat="47.59086" lon="-2.99379">
        <ele>14</ele>
        <time>2021-08-14T13:18:56Z</time>
      </trkpt>
      <trkpt lat="47.5909" lon="-2.99379">
        <ele>9.3</ele>
        <time>2021-08-14T13:19:00Z</time>
      </trkpt>
      <trkpt lat="47.59094" lon="-2.99377">
        <ele>9.5</ele>
        <time>2021-08-14T13:20:33Z</time>
      </trkpt>
      <trkpt lat="47.59099" lon="-2.99375">
        <ele>28</ele>
        <time>2021-08-14T13:20:37Z</time>
      </trkpt>
      <trkpt lat="47.59103" lon="-2.99372">
        <ele>28</ele>
        <time>2021-08-14T13:20:44Z</time>
      </trkpt>
      <trkpt lat="47.59109" lon="-2.99367">
        <ele>12</ele>
        <time>2021-08-14T13:20:51Z</time>
      </trkpt>
      <trkpt lat="47.59115" lon="-2.99364">
        <ele>12</ele>
        <time>2021-08-14T13:20:55Z</time>
      </trkpt>
      <trkpt lat="47.59122" lon="-2.99361">
        <ele>2</ele>
        <time>2021-08-14T13:20:59Z</time>
      </trkpt>
      <trkpt lat="47.59127" lon="-2.9936">
        <ele>2</ele>
        <time>2021-08-14T13:21:02Z</time>
      </trkpt>
      <trkpt lat="47.59133" lon="-2.99357">
        <ele>-8</ele>
        <time>2021-08-14T13:21:05Z</time>
      </trkpt>
      <trkpt lat="47.59138" lon="-2.99353">
        <ele>-8</ele>
        <time>2021-08-14T13:21:08Z</time>
      </trkpt>
      <trkpt lat="47.59143" lon="-2.99349">
        <ele>15</ele>
        <time>2021-08-14T13:21:11Z</time>
      </trkpt>
      <trkpt lat="47.59149" lon="-2.99346">
        <ele>15</ele>
        <time>2021-08-14T13:21:14Z</time>
      </trkpt>
      <trkpt lat="47.59156" lon="-2.99342">
        <ele>10</ele>
        <time>2021-08-14T13:21:18Z</time>
      </trkpt>
      <trkpt lat="47.5916" lon="-2.99339">
        <ele>10</ele>
        <time>2021-08-14T13:21:20Z</time>
      </trkpt>
      <trkpt lat="47.59165" lon="-2.99336">
        <ele>26</ele>
        <time>2021-08-14T13:21:23Z</time>
      </trkpt>
      <trkpt lat="47.59171" lon="-2.99335">
        <ele>26</ele>
        <time>2021-08-14T13:21:27Z</time>
      </trkpt>
      <trkpt lat="47.59176" lon="-2.99336">
        <ele>26</ele>
        <time>2021-08-14T13:21:33Z</time>
      </trkpt>
    </trkseg>
  </trk>
</gpx>